Observation data for Aiken on 05/23/2019      Previous  Date  Next       Current Mesonet Observations  Soil Data  Daily Summary Page  Observations in Plain Language
KAI1 230500Z 15015KT 22/15 A2984 RMK A01 T02180148  RH  064%=      5-min Rain = 0
KAI1 230501Z 15015KT 22/15 A2984 RMK A01 T02180148  RH  065%=      5-min Rain = 0
KAI1 230502Z 15016KT 22/15 A2984 RMK A01 T02180150  RH  065%=      5-min Rain = 0
KAI1 230503Z 15016KT 22/15 A2984 RMK A01 T02180151  RH  066%=      5-min Rain = 0
KAI1 230504Z 15015KT 22/15 A2984 RMK A01 T02180152  RH  066%=      5-min Rain = 0
KAI1 230505Z 15014KT 22/15 A2984 RMK A01 T02190152  RH  066%=      5-min Rain = 0
KAI1 230506Z 15016KT 22/15 A2984 RMK A01 T02190153  RH  066%=      5-min Rain = 0
KAI1 230507Z 15014KT 22/15 A2984 RMK A01 T02190153  RH  066%=      5-min Rain = 0
KAI1 230508Z 14014KT 22/15 A2984 RMK A01 T02190153  RH  066%=      5-min Rain = 0
KAI1 230509Z 14015KT 22/16 A2984 RMK A01 T02190155  RH  067%=      5-min Rain = 0
KAI1 230510Z 14014KT 22/16 A2984 RMK A01 T02190155  RH  067%=      5-min Rain = 0
KAI1 230511Z 14013KT 22/16 A2984 RMK A01 T02190155  RH  067%=      5-min Rain = 0
KAI1 230512Z 14013KT 22/16 A2984 RMK A01 T02180155  RH  067%=      5-min Rain = 0
KAI1 230513Z 15013KT 22/16 A2984 RMK A01 T02180155  RH  067%=      5-min Rain = 0
KAI1 230514Z 15014KT 22/16 A2984 RMK A01 T02170155  RH  068%=      5-min Rain = 0
KAI1 230515Z 15014KT 22/16 A2984 RMK A01 T02170155  RH  068%=      5-min Rain = 0
KAI1 230516Z 15014KT 22/16 A2984 RMK A01 T02170156  RH  068%=      5-min Rain = 0
KAI1 230517Z 15015KT 22/16 A2984 RMK A01 T02170157  RH  069%=      5-min Rain = 0
KAI1 230518Z 15015KT 22/16 A2984 RMK A01 T02170157  RH  069%=      5-min Rain = 0
KAI1 230519Z 15013KT 22/16 A2984 RMK A01 T02170157  RH  069%=      5-min Rain = 0
KAI1 230520Z 14013KT 22/16 A2984 RMK A01 T02170157  RH  069%=      5-min Rain = 0
KAI1 230521Z 15014KT 22/16 A2984 RMK A01 T02170158  RH  069%=      5-min Rain = 0
KAI1 230522Z 15014KT 22/16 A2984 RMK A01 T02170158  RH  069%=      5-min Rain = 0
KAI1 230523Z 15014KT 22/16 A2984 RMK A01 T02170158  RH  069%=      5-min Rain = 0
KAI1 230524Z 14012KT 22/16 A2984 RMK A01 T02170158  RH  069%=      5-min Rain = 0
KAI1 230525Z 15014KT 22/16 A2984 RMK A01 T02170159  RH  070%=      5-min Rain = 0
KAI1 230526Z 15014KT 22/16 A2984 RMK A01 T02160159  RH  070%=      5-min Rain = 0
KAI1 230527Z 15014KT 22/16 A2984 RMK A01 T02160160  RH  070%=      5-min Rain = 0
KAI1 230528Z 15013KT 22/16 A2984 RMK A01 T02160160  RH  070%=      5-min Rain = 0
KAI1 230529Z 15014KT 22/16 A2984 RMK A01 T02160161  RH  071%=      5-min Rain = 0
KAI1 230530Z 15015KT 22/16 A2984 RMK A01 T02160162  RH  071%=      5-min Rain = 0
KAI1 230531Z 15015KT 22/16 A2984 RMK A01 T02160161  RH  071%=      5-min Rain = 0
KAI1 230532Z 15014KT 22/16 A2984 RMK A01 T02160162  RH  071%=      5-min Rain = 0
KAI1 230533Z 15014KT 22/16 A2984 RMK A01 T02160162  RH  071%=      5-min Rain = 0
KAI1 230534Z 15014KT 22/16 A2984 RMK A01 T02160162  RH  071%=      5-min Rain = 0
KAI1 230535Z 15013KT 22/16 A2984 RMK A01 T02160162  RH  072%=      5-min Rain = 0
KAI1 230536Z 15015KT 22/16 A2984 RMK A01 T02150163  RH  072%=      5-min Rain = 0
KAI1 230537Z 15013KT 22/16 A2984 RMK A01 T02150163  RH  072%=      5-min Rain = 0
KAI1 230538Z 15015KT 22/16 A2984 RMK A01 T02150164  RH  072%=      5-min Rain = 0
KAI1 230539Z 16015KT 22/17 A2984 RMK A01 T02150165  RH  073%=      5-min Rain = 0
KAI1 230540Z 16016KT 22/17 A2984 RMK A01 T02150165  RH  073%=      5-min Rain = 0
KAI1 230541Z 16016KT 22/17 A2984 RMK A01 T02150166  RH  073%=      5-min Rain = 0
KAI1 230542Z 16016KT 22/17 A2984 RMK A01 T02150166  RH  074%=      5-min Rain = 0
KAI1 230543Z 16015KT 22/17 A2984 RMK A01 T02150167  RH  074%=      5-min Rain = 0
KAI1 230544Z 16015KT 22/17 A2984 RMK A01 T02150167  RH  074%=      5-min Rain = 0
KAI1 230545Z 16015KT 22/17 A2984 RMK A01 T02160169  RH  075%=      5-min Rain = 0
KAI1 230546Z 16015KT 22/17 A2984 RMK A01 T02160168  RH  074%=      5-min Rain = 0
KAI1 230547Z 16015KT 22/17 A2984 RMK A01 T02150169  RH  075%=      5-min Rain = 0
KAI1 230548Z 16017KT 22/17 A2984 RMK A01 T02160170  RH  075%=      5-min Rain = 0
KAI1 230549Z 16016KT 22/17 A2984 RMK A01 T02160170  RH  075%=      5-min Rain = 0
KAI1 230550Z 16014KT 22/17 A2984 RMK A01 T02160170  RH  075%=      5-min Rain = 0
KAI1 230551Z 16015KT 22/17 A2984 RMK A01 T02160171  RH  075%=      5-min Rain = 0
KAI1 230552Z 16015KT 22/17 A2984 RMK A01 T02160171  RH  076%=      5-min Rain = 0
KAI1 230553Z 16015KT 22/17 A2984 RMK A01 T02160172  RH  076%=      5-min Rain = 0
KAI1 230554Z 16014KT 22/17 A2984 RMK A01 T02160172  RH  076%=      5-min Rain = 0
KAI1 230555Z 16016KT 22/17 A2984 RMK A01 T02160173  RH  076%=      5-min Rain = 0
KAI1 230556Z 16015KT 22/17 A2984 RMK A01 T02160173  RH  076%=      5-min Rain = 0
KAI1 230557Z 16016KT 22/17 A2984 RMK A01 T02160173  RH  077%=      5-min Rain = 0
KAI1 230558Z 16015KT 22/17 A2984 RMK A01 T02160173  RH  077%=      5-min Rain = 0
KAI1 230559Z 16014KT 22/17 A2984 RMK A01 T02160174  RH  077%=      5-min Rain = 0
KAI1 230600Z 16016KT 22/17 A2984 RMK A01 T02160174  RH  077%=      5-min Rain = 0
KAI1 230601Z 16015KT 22/17 A2984 RMK A01 T02160174  RH  077%=      5-min Rain = 0
KAI1 230602Z 16016KT 22/18 A2984 RMK A01 T02160175  RH  077%=      5-min Rain = 0
KAI1 230603Z 16016KT 22/18 A2984 RMK A01 T02160175  RH  077%=      5-min Rain = 0
KAI1 230604Z 16016KT 22/18 A2984 RMK A01 T02160175  RH  077%=      5-min Rain = 0
KAI1 230605Z 16015KT 22/18 A2984 RMK A01 T02160175  RH  077%=      5-min Rain = 0
KAI1 230606Z 16016KT 22/18 A2984 RMK A01 T02160175  RH  078%=      5-min Rain = 0
KAI1 230607Z 16016KT 22/18 A2984 RMK A01 T02160175  RH  078%=      5-min Rain = 0
KAI1 230608Z 16015KT 22/18 A2984 RMK A01 T02160176  RH  078%=      5-min Rain = 0
KAI1 230609Z 16015KT 22/18 A2984 RMK A01 T02160176  RH  078%=      5-min Rain = 0
KAI1 230610Z 16016KT 22/18 A2984 RMK A01 T02160176  RH  078%=      5-min Rain = 0
KAI1 230611Z 16017KT 22/18 A2984 RMK A01 T02160177  RH  079%=      5-min Rain = 0
KAI1 230612Z 16017KT 22/18 A2984 RMK A01 T02160177  RH  079%=      5-min Rain = 0
KAI1 230613Z 16016KT 22/18 A2984 RMK A01 T02160177  RH  078%=      5-min Rain = 0
KAI1 230614Z 16017KT 22/18 A2984 RMK A01 T02160178  RH  079%=      5-min Rain = 0
KAI1 230615Z 16016KT 22/18 A2984 RMK A01 T02160178  RH  079%=      5-min Rain = 0
KAI1 230616Z 16017KT 22/18 A2984 RMK A01 T02170179  RH  079%=      5-min Rain = 0
KAI1 230617Z 16016KT 22/18 A2984 RMK A01 T02160178  RH  079%=      5-min Rain = 0
KAI1 230618Z 16016KT 22/18 A2984 RMK A01 T02160179  RH  079%=      5-min Rain = 0
KAI1 230619Z 16015KT 22/18 A2984 RMK A01 T02170179  RH  079%=      5-min Rain = 0
KAI1 230620Z 16017KT 22/18 A2984 RMK A01 T02160179  RH  079%=      5-min Rain = 0
KAI1 230621Z 16017KT 22/18 A2984 RMK A01 T02160180  RH  080%=      5-min Rain = 0
KAI1 230622Z 16018KT 22/18 A2984 RMK A01 T02160180  RH  080%=      5-min Rain = 0
KAI1 230623Z 16017KT 22/18 A2984 RMK A01 T02170181  RH  080%=      5-min Rain = 0
KAI1 230624Z 16016KT 22/18 A2984 RMK A01 T02170181  RH  080%=      5-min Rain = 0
KAI1 230625Z 16017KT 22/18 A2984 RMK A01 T02170181  RH  080%=      5-min Rain = 0
KAI1 230626Z 16017KT 22/18 A2984 RMK A01 T02180182  RH  080%=      5-min Rain = 0
KAI1 230627Z 16016KT 22/18 A2984 RMK A01 T02170181  RH  080%=      5-min Rain = 0
KAI1 230628Z 16018KT 22/18 A2984 RMK A01 T02180182  RH  080%=      5-min Rain = 0
KAI1 230629Z 15017KT 22/18 A2984 RMK A01 T02170182  RH  080%=      5-min Rain = 0
KAI1 230630Z 15017KT 22/18 A2984 RMK A01 T02170182  RH  080%=      5-min Rain = 0
KAI1 230631Z 15017KT 22/18 A2984 RMK A01 T02170182  RH  080%=      5-min Rain = 0
KAI1 230632Z 15016KT 22/18 A2984 RMK A01 T02170182  RH  081%=      5-min Rain = 0
KAI1 230633Z 16015KT 22/18 A2984 RMK A01 T02170182  RH  081%=      5-min Rain = 0
KAI1 230634Z 16015KT 22/18 A2984 RMK A01 T02160182  RH  081%=      5-min Rain = 0
KAI1 230635Z 16014KT 22/18 A2985 RMK A01 T02160182  RH  081%=      5-min Rain = 0
KAI1 230636Z 15016KT 22/18 A2984 RMK A01 T02150181  RH  081%=      5-min Rain = 0
KAI1 230637Z 16016KT 22/18 A2984 RMK A01 T02150182  RH  081%=      5-min Rain = 0
KAI1 230638Z 16015KT 22/18 A2985 RMK A01 T02150182  RH  081%=      5-min Rain = 0
KAI1 230639Z 15017KT 22/18 A2985 RMK A01 T02150182  RH  082%=      5-min Rain = 0
KAI1 230640Z 16016KT 22/18 A2985 RMK A01 T02150183  RH  082%=      5-min Rain = 0
KAI1 230641Z 16016KT 22/18 A2985 RMK A01 T02150183  RH  082%=      5-min Rain = 0
KAI1 230642Z 16015KT 22/18 A2985 RMK A01 T02150183  RH  082%=      5-min Rain = 0
KAI1 230643Z 16017KT 22/18 A2985 RMK A01 T02150183  RH  082%=      5-min Rain = 0
KAI1 230644Z 16016KT 21/18 A2985 RMK A01 T02140183  RH  082%=      5-min Rain = 0
KAI1 230645Z 16015KT 21/18 A2985 RMK A01 T02140183  RH  082%=      5-min Rain = 0
KAI1 230646Z 16015KT 21/18 A2985 RMK A01 T02140183  RH  082%=      5-min Rain = 0
KAI1 230647Z 16016KT 21/18 A2985 RMK A01 T02140183  RH  083%=      5-min Rain = 0
KAI1 230648Z 16016KT 21/18 A2985 RMK A01 T02140184  RH  083%=      5-min Rain = 0
KAI1 230649Z 16016KT 21/18 A2985 RMK A01 T02140183  RH  083%=      5-min Rain = 0
KAI1 230650Z 16017KT 21/18 A2985 RMK A01 T02140184  RH  083%=      5-min Rain = 0
KAI1 230651Z 16017KT 21/18 A2985 RMK A01 T02140184  RH  083%=      5-min Rain = 0
KAI1 230652Z 16017KT 21/18 A2985 RMK A01 T02140184  RH  083%=      5-min Rain = 0
KAI1 230653Z 16015KT 21/18 A2985 RMK A01 T02140184  RH  083%=      5-min Rain = 0
KAI1 230654Z 16018KT 21/18 A2985 RMK A01 T02140184  RH  083%=      5-min Rain = 0
KAI1 230655Z 16017KT 21/18 A2985 RMK A01 T02140184  RH  083%=      5-min Rain = 0
KAI1 230656Z 16017KT 21/19 A2985 RMK A01 T02140185  RH  083%=      5-min Rain = 0
KAI1 230657Z 16017KT 21/19 A2985 RMK A01 T02140185  RH  084%=      5-min Rain = 0
KAI1 230658Z 16016KT 21/18 A2985 RMK A01 T02130184  RH  084%=      5-min Rain = 0
KAI1 230659Z 16015KT 21/18 A2985 RMK A01 T02130184  RH  084%=      5-min Rain = 0
KAI1 230700Z 16017KT 21/18 A2985 RMK A01 T02130184  RH  084%=      5-min Rain = 0
KAI1 230701Z 16016KT 21/19 A2985 RMK A01 T02130185  RH  084%=      5-min Rain = 0
KAI1 230702Z 16019KT 21/19 A2985 RMK A01 T02130185  RH  084%=      5-min Rain = 0
KAI1 230703Z 16017KT 21/19 A2985 RMK A01 T02130185  RH  084%=      5-min Rain = 0
KAI1 230704Z 16017KT 21/19 A2985 RMK A01 T02130185  RH  084%=      5-min Rain = 0
KAI1 230705Z 16015KT 21/19 A2985 RMK A01 T02130185  RH  084%=      5-min Rain = 0
KAI1 230706Z 16016KT 21/19 A2985 RMK A01 T02120185  RH  084%=      5-min Rain = 0
KAI1 230707Z 16016KT 21/19 A2985 RMK A01 T02120185  RH  085%=      5-min Rain = 0
KAI1 230708Z 16016KT 21/19 A2985 RMK A01 T02120185  RH  085%=      5-min Rain = 0
KAI1 230709Z 16015KT 21/19 A2985 RMK A01 T02120185  RH  085%=      5-min Rain = 0
KAI1 230710Z 16016KT 21/19 A2985 RMK A01 T02120185  RH  085%=      5-min Rain = 0
KAI1 230711Z 16016KT 21/19 A2985 RMK A01 T02120186  RH  085%=      5-min Rain = 0
KAI1 230712Z 16016KT 21/19 A2985 RMK A01 T02120186  RH  085%=      5-min Rain = 0
KAI1 230713Z 16016KT 21/19 A2985 RMK A01 T02110185  RH  085%=      5-min Rain = 0
KAI1 230714Z 16015KT 21/19 A2985 RMK A01 T02110186  RH  085%=      5-min Rain = 0
KAI1 230715Z 16015KT 21/19 A2985 RMK A01 T02110185  RH  085%=      5-min Rain = 0
KAI1 230716Z 16016KT 21/19 A2985 RMK A01 T02110186  RH  085%=      5-min Rain = 0
KAI1 230717Z 16016KT 21/19 A2985 RMK A01 T02110186  RH  086%=      5-min Rain = 0
KAI1 230718Z 16016KT 21/19 A2985 RMK A01 T02110186  RH  086%=      5-min Rain = 0
KAI1 230719Z 16015KT 21/19 A2985 RMK A01 T02110185  RH  086%=      5-min Rain = 0
KAI1 230720Z 16015KT 21/19 A2985 RMK A01 T02100185  RH  086%=      5-min Rain = 0
KAI1 230721Z 16013KT 21/19 A2985 RMK A01 T02100185  RH  086%=      5-min Rain = 0
KAI1 230722Z 16015KT 21/19 A2985 RMK A01 T02100185  RH  086%=      5-min Rain = 0
KAI1 230723Z 16015KT 21/19 A2985 RMK A01 T02090186  RH  086%=      5-min Rain = 0
KAI1 230724Z 16014KT 21/19 A2985 RMK A01 T02100186  RH  086%=      5-min Rain = 0
KAI1 230725Z 16015KT 21/19 A2985 RMK A01 T02100186  RH  086%=      5-min Rain = 0
KAI1 230726Z 16014KT 21/19 A2985 RMK A01 T02090186  RH  086%=      5-min Rain = 0
KAI1 230727Z 16015KT 21/19 A2985 RMK A01 T02090186  RH  086%=      5-min Rain = 0
KAI1 230728Z 16015KT 21/19 A2985 RMK A01 T02090186  RH  087%=      5-min Rain = 0
KAI1 230729Z 16014KT 21/19 A2985 RMK A01 T02090186  RH  087%=      5-min Rain = 0
KAI1 230730Z 16014KT 21/19 A2985 RMK A01 T02090186  RH  087%=      5-min Rain = 0
KAI1 230731Z 16016KT 21/19 A2985 RMK A01 T02090186  RH  087%=      5-min Rain = 0
KAI1 230732Z 16015KT 21/19 A2985 RMK A01 T02080186  RH  087%=      5-min Rain = 0
KAI1 230733Z 16015KT 21/19 A2985 RMK A01 T02080186  RH  087%=      5-min Rain = 0
KAI1 230734Z 16015KT 21/19 A2985 RMK A01 T02080185  RH  087%=      5-min Rain = 0
KAI1 230735Z 16015KT 21/19 A2985 RMK A01 T02080186  RH  087%=      5-min Rain = 0
KAI1 230736Z 16014KT 21/19 A2985 RMK A01 T02080186  RH  087%=      5-min Rain = 0
KAI1 230737Z 16014KT 21/19 A2985 RMK A01 T02070186  RH  087%=      5-min Rain = 0
KAI1 230738Z 16014KT 21/19 A2985 RMK A01 T02070186  RH  087%=      5-min Rain = 0
KAI1 230739Z 16015KT 21/19 A2985 RMK A01 T02070186  RH  088%=      5-min Rain = 0
KAI1 230740Z 16014KT 21/19 A2985 RMK A01 T02060186  RH  088%=      5-min Rain = 0
KAI1 230741Z 16014KT 21/19 A2985 RMK A01 T02060186  RH  088%=      5-min Rain = 0
KAI1 230742Z 16014KT 21/19 A2985 RMK A01 T02060186  RH  088%=      5-min Rain = 0
KAI1 230743Z 16014KT 21/19 A2985 RMK A01 T02060186  RH  088%=      5-min Rain = 0
KAI1 230744Z 16014KT 21/19 A2985 RMK A01 T02050186  RH  088%=      5-min Rain = 0
KAI1 230745Z 15013KT 21/19 A2985 RMK A01 T02050186  RH  089%=      5-min Rain = 0
KAI1 230746Z 16013KT 21/19 A2985 RMK A01 T02050186  RH  089%=      5-min Rain = 0
KAI1 230747Z 16013KT 21/19 A2985 RMK A01 T02050185  RH  089%=      5-min Rain = 0
KAI1 230748Z 16013KT 20/19 A2985 RMK A01 T02040186  RH  089%=      5-min Rain = 0
KAI1 230749Z 16014KT 20/19 A2985 RMK A01 T02040186  RH  089%=      5-min Rain = 0
KAI1 230750Z 16013KT 20/19 A2985 RMK A01 T02040186  RH  089%=      5-min Rain = 0
KAI1 230751Z 16012KT 20/19 A2985 RMK A01 T02040185  RH  089%=      5-min Rain = 0
KAI1 230752Z 16014KT 20/19 A2985 RMK A01 T02040185  RH  089%=      5-min Rain = 0
KAI1 230753Z 16014KT 20/19 A2985 RMK A01 T02030186  RH  090%=      5-min Rain = 0
KAI1 230754Z 15013KT 20/19 A2985 RMK A01 T02030186  RH  090%=      5-min Rain = 0
KAI1 230755Z 16013KT 20/19 A2985 RMK A01 T02040186  RH  090%=      5-min Rain = 0
KAI1 230756Z 15014KT 20/19 A2985 RMK A01 T02030185  RH  090%=      5-min Rain = 0
KAI1 230757Z 15014KT 20/19 A2985 RMK A01 T02030186  RH  090%=      5-min Rain = 0
KAI1 230758Z 16013KT 20/19 A2985 RMK A01 T02030186  RH  090%=      5-min Rain = 0
KAI1 230759Z 15013KT 20/19 A2985 RMK A01 T02030186  RH  090%=      5-min Rain = 0
KAI1 230800Z 15015KT 20/19 A2985 RMK A01 T02030186  RH  090%=      5-min Rain = 0
KAI1 230801Z 15013KT 20/19 A2985 RMK A01 T02030187  RH  090%=      5-min Rain = 0
KAI1 230802Z 15014KT 20/19 A2985 RMK A01 T02030186  RH  090%=      5-min Rain = 0
KAI1 230803Z 15013KT 20/19 A2986 RMK A01 T02020186  RH  090%=      5-min Rain = 0
KAI1 230804Z 15014KT 20/19 A2986 RMK A01 T02020186  RH  090%=      5-min Rain = 0
KAI1 230805Z 15013KT 20/19 A2986 RMK A01 T02020186  RH  090%=      5-min Rain = 0
KAI1 230806Z 15014KT 20/19 A2986 RMK A01 T02020186  RH  091%=      5-min Rain = 0
KAI1 230807Z 15013KT 20/19 A2986 RMK A01 T02020186  RH  091%=      5-min Rain = 0
KAI1 230808Z 15015KT 20/19 A2986 RMK A01 T02020186  RH  091%=      5-min Rain = 0
KAI1 230809Z 15013KT 20/19 A2986 RMK A01 T02020186  RH  091%=      5-min Rain = 0
KAI1 230810Z 15013KT 20/19 A2986 RMK A01 T02020186  RH  091%=      5-min Rain = 0
KAI1 230811Z 15014KT 20/19 A2986 RMK A01 T02010186  RH  091%=      5-min Rain = 0
KAI1 230812Z 15015KT 20/19 A2986 RMK A01 T02010187  RH  091%=      5-min Rain = 0
KAI1 230813Z 15016KT 20/19 A2986 RMK A01 T02010187  RH  091%=      5-min Rain = 0
KAI1 230814Z 16014KT 20/19 A2986 RMK A01 T02010187  RH  091%=      5-min Rain = 0
KAI1 230815Z 15015KT 20/19 A2986 RMK A01 T02010187  RH  092%=      5-min Rain = 0
KAI1 230816Z 16015KT 20/19 A2986 RMK A01 T02010187  RH  092%=      5-min Rain = 0
KAI1 230817Z 15014KT 20/19 A2986 RMK A01 T02010188  RH  092%=      5-min Rain = 0
KAI1 230818Z 16014KT 20/19 A2986 RMK A01 T02020188  RH  092%=      5-min Rain = 0
KAI1 230819Z 15013KT 20/19 A2986 RMK A01 T02020188  RH  092%=      5-min Rain = 0
KAI1 230820Z 15014KT 20/19 A2986 RMK A01 T02020188  RH  092%=      5-min Rain = 0
KAI1 230821Z 15014KT 20/19 A2986 RMK A01 T02020188  RH  092%=      5-min Rain = 0
KAI1 230822Z 16014KT 20/19 A2986 RMK A01 T02020188  RH  092%=      5-min Rain = 0
KAI1 230823Z 15014KT 20/19 A2986 RMK A01 T02020188  RH  092%=      5-min Rain = 0
KAI1 230824Z 15014KT 20/19 A2986 RMK A01 T02020189  RH  092%=      5-min Rain = 0
KAI1 230825Z 15014KT 20/19 A2986 RMK A01 T02020189  RH  092%=      5-min Rain = 0
KAI1 230826Z 15016KT 20/19 A2986 RMK A01 T02030189  RH  092%=      5-min Rain = 0
KAI1 230827Z 15014KT 20/19 A2986 RMK A01 T02030190  RH  092%=      5-min Rain = 0
KAI1 230828Z 15013KT 20/19 A2986 RMK A01 T02030190  RH  092%=      5-min Rain = 0
KAI1 230829Z 15013KT 20/19 A2986 RMK A01 T02040190  RH  092%=      5-min Rain = 0
KAI1 230830Z 15014KT 20/19 A2986 RMK A01 T02040190  RH  092%=      5-min Rain = 0
KAI1 230831Z 15014KT 21/19 A2986 RMK A01 T02050191  RH  092%=      5-min Rain = 0
KAI1 230832Z 15015KT 21/19 A2986 RMK A01 T02050191  RH  092%=      5-min Rain = 0
KAI1 230833Z 15014KT 21/19 A2986 RMK A01 T02050191  RH  092%=      5-min Rain = 0
KAI1 230834Z 15015KT 21/19 A2986 RMK A01 T02060191  RH  091%=      5-min Rain = 0
KAI1 230835Z 15015KT 21/19 A2986 RMK A01 T02060192  RH  092%=      5-min Rain = 0
KAI1 230836Z 15015KT 21/19 A2987 RMK A01 T02060192  RH  092%=      5-min Rain = 0
KAI1 230837Z 15017KT 21/19 A2987 RMK A01 T02060192  RH  091%=      5-min Rain = 0
KAI1 230838Z 15016KT 21/19 A2987 RMK A01 T02070193  RH  091%=      5-min Rain = 0
KAI1 230839Z 15014KT 21/19 A2987 RMK A01 T02070193  RH  091%=      5-min Rain = 0
KAI1 230840Z 15016KT 21/19 A2987 RMK A01 T02080193  RH  091%=      5-min Rain = 0
KAI1 230841Z 15017KT 21/19 A2987 RMK A01 T02080193  RH  091%=      5-min Rain = 0
KAI1 230842Z 15016KT 21/19 A2987 RMK A01 T02080193  RH  091%=      5-min Rain = 0
KAI1 230843Z 15016KT 21/19 A2987 RMK A01 T02080193  RH  091%=      5-min Rain = 0
KAI1 230844Z 15015KT 21/19 A2987 RMK A01 T02090194  RH  091%=      5-min Rain = 0
KAI1 230845Z 15013KT 21/19 A2987 RMK A01 T02090194  RH  091%=      5-min Rain = 0
KAI1 230846Z 15014KT 21/19 A2987 RMK A01 T02080193  RH  091%=      5-min Rain = 0
KAI1 230847Z 15017KT 21/19 A2987 RMK A01 T02090193  RH  091%=      5-min Rain = 0
KAI1 230848Z 15018KT 21/19 A2987 RMK A01 T02090194  RH  091%=      5-min Rain = 0
KAI1 230849Z 15015KT 21/19 A2987 RMK A01 T02090194  RH  091%=      5-min Rain = 0
KAI1 230850Z 15015KT 21/19 A2987 RMK A01 T02090194  RH  091%=      5-min Rain = 0
KAI1 230851Z 15014KT 21/19 A2987 RMK A01 T02100194  RH  091%=      5-min Rain = 0
KAI1 230852Z 15013KT 21/19 A2987 RMK A01 T02090194  RH  091%=      5-min Rain = 0
KAI1 230853Z 15013G18KT 21/19 A2987 RMK A01 T02100194  RH  091%=      5-min Rain = 0
KAI1 230854Z 15014KT 21/19 A2987 RMK A01 T02090194  RH  091%=      5-min Rain = 0
KAI1 230855Z 15014KT 21/19 A2987 RMK A01 T02100194  RH  091%=      5-min Rain = 0
KAI1 230856Z 15016KT 21/19 A2987 RMK A01 T02090194  RH  091%=      5-min Rain = 0
KAI1 230857Z 15017KT 21/20 A2987 RMK A01 T02100195  RH  091%=      5-min Rain = 0
KAI1 230858Z 15015KT 21/20 A2987 RMK A01 T02100195  RH  091%=      5-min Rain = 0
KAI1 230859Z 15015KT 21/20 A2987 RMK A01 T02110195  RH  091%=      5-min Rain = 0
KAI1 230900Z 15017KT 21/20 A2987 RMK A01 T02100195  RH  091%=      5-min Rain = 0
KAI1 230901Z 15014KT 21/20 A2987 RMK A01 T02110195  RH  091%=      5-min Rain = 0
KAI1 230902Z 15011KT 21/20 A2987 RMK A01 T02110195  RH  091%=      5-min Rain = 0
KAI1 230903Z 15015KT 21/20 A2987 RMK A01 T02110195  RH  091%=      5-min Rain = 0
KAI1 230904Z 15015KT 21/20 A2987 RMK A01 T02110195  RH  091%=      5-min Rain = 0
KAI1 230905Z 15015KT 21/20 A2987 RMK A01 T02120196  RH  091%=      5-min Rain = 0
KAI1 230906Z 15015KT 21/20 A2987 RMK A01 T02110195  RH  091%=      5-min Rain = 0
KAI1 230907Z 15014KT 21/20 A2987 RMK A01 T02110195  RH  091%=      5-min Rain = 0
KAI1 230908Z 15016KT 21/20 A2987 RMK A01 T02110195  RH  091%=      5-min Rain = 0
KAI1 230909Z 15016KT 21/20 A2987 RMK A01 T02110196  RH  091%=      5-min Rain = 0
KAI1 230910Z 15014KT 21/20 A2987 RMK A01 T02110195  RH  091%=      5-min Rain = 0
KAI1 230911Z 15013KT 21/20 A2987 RMK A01 T02110195  RH  091%=      5-min Rain = 0
KAI1 230912Z 15013KT 21/20 A2987 RMK A01 T02110195  RH  091%=      5-min Rain = 0
KAI1 230913Z 15016KT 21/20 A2987 RMK A01 T02120196  RH  091%=      5-min Rain = 0
KAI1 230914Z 15014KT 21/20 A2987 RMK A01 T02120196  RH  091%=      5-min Rain = 0
KAI1 230915Z 15013KT 21/20 A2987 RMK A01 T02120196  RH  091%=      5-min Rain = 0
KAI1 230916Z 15013KT 21/20 A2987 RMK A01 T02120196  RH  091%=      5-min Rain = 0
KAI1 230917Z 15014KT 21/20 A2987 RMK A01 T02120196  RH  091%=      5-min Rain = 0
KAI1 230918Z 15017KT 21/20 A2987 RMK A01 T02120196  RH  091%=      5-min Rain = 0
KAI1 230919Z 15016KT 21/20 A2987 RMK A01 T02120196  RH  091%=      5-min Rain = 0
KAI1 230920Z 15014KT 21/20 A2987 RMK A01 T02120196  RH  091%=      5-min Rain = 0
KAI1 230921Z 15015KT 21/20 A2987 RMK A01 T02120196  RH  091%=      5-min Rain = 0
KAI1 230922Z 15014KT 21/20 A2987 RMK A01 T02120196  RH  091%=      5-min Rain = 0
KAI1 230923Z 15014KT 21/20 A2987 RMK A01 T02120196  RH  091%=      5-min Rain = 0
KAI1 230924Z 15014KT 21/20 A2987 RMK A01 T02120196  RH  091%=      5-min Rain = 0
KAI1 230925Z 15015KT 21/20 A2987 RMK A01 T02120196  RH  091%=      5-min Rain = 0
KAI1 230926Z 15013KT 21/20 A2987 RMK A01 T02120196  RH  091%=      5-min Rain = 0
KAI1 230927Z 15013KT 21/20 A2987 RMK A01 T02120196  RH  091%=      5-min Rain = 0
KAI1 230928Z 15015KT 21/20 A2987 RMK A01 T02120196  RH  091%=      5-min Rain = 0
KAI1 230929Z 15015KT 21/20 A2987 RMK A01 T02120196  RH  091%=      5-min Rain = 0
KAI1 230930Z 15015KT 21/20 A2987 RMK A01 T02120196  RH  091%=      5-min Rain = 0
KAI1 230931Z 15014KT 21/20 A2987 RMK A01 T02120196  RH  091%=      5-min Rain = 0
KAI1 230932Z 15015KT 21/20 A2987 RMK A01 T02120196  RH  091%=      5-min Rain = 0
KAI1 230933Z 15014KT 21/20 A2987 RMK A01 T02120196  RH  091%=      5-min Rain = 0
KAI1 230934Z 15013KT 21/20 A2987 RMK A01 T02120197  RH  091%=      5-min Rain = 0
KAI1 230935Z 15014KT 21/20 A2987 RMK A01 T02120196  RH  091%=      5-min Rain = 0
KAI1 230936Z 15014KT 21/20 A2987 RMK A01 T02120197  RH  091%=      5-min Rain = 0
KAI1 230937Z 15014KT 21/20 A2987 RMK A01 T02120197  RH  091%=      5-min Rain = 0
KAI1 230938Z 15014KT 21/20 A2987 RMK A01 T02120197  RH  091%=      5-min Rain = 0
KAI1 230939Z 15013KT 21/20 A2987 RMK A01 T02120197  RH  091%=      5-min Rain = 0
KAI1 230940Z 15014KT 21/20 A2987 RMK A01 T02120197  RH  091%=      5-min Rain = 0
KAI1 230941Z 15013KT 21/20 A2987 RMK A01 T02120197  RH  091%=      5-min Rain = 0
KAI1 230942Z 15012KT 21/20 A2987 RMK A01 T02110196  RH  091%=      5-min Rain = 0
KAI1 230943Z 15013KT 21/20 A2987 RMK A01 T02110197  RH  091%=      5-min Rain = 0
KAI1 230944Z 15013KT 21/20 A2987 RMK A01 T02110197  RH  091%=      5-min Rain = 0
KAI1 230945Z 15014KT 21/20 A2987 RMK A01 T02110197  RH  091%=      5-min Rain = 0
KAI1 230946Z 15013KT 21/20 A2987 RMK A01 T02110197  RH  092%=      5-min Rain = 0
KAI1 230947Z 15012KT 21/20 A2987 RMK A01 T02110197  RH  091%=      5-min Rain = 0
KAI1 230948Z 15011KT 21/20 A2987 RMK A01 T02110197  RH  091%=      5-min Rain = 0
KAI1 230949Z 15011KT 21/20 A2987 RMK A01 T02110196  RH  091%=      5-min Rain = 0
KAI1 230950Z 15012KT 21/20 A2987 RMK A01 T02100196  RH  091%=      5-min Rain = 0
KAI1 230951Z 16013KT 21/20 A2987 RMK A01 T02100197  RH  092%=      5-min Rain = 0
KAI1 230952Z 15012KT 21/20 A2987 RMK A01 T02100197  RH  092%=      5-min Rain = 0
KAI1 230953Z 15012KT 21/20 A2987 RMK A01 T02100196  RH  092%=      5-min Rain = 0
KAI1 230954Z 16012KT 21/20 A2987 RMK A01 T02100196  RH  092%=      5-min Rain = 0
KAI1 230955Z 16012KT 21/20 A2987 RMK A01 T02090196  RH  092%=      5-min Rain = 0
KAI1 230956Z 16012KT 21/20 A2987 RMK A01 T02100196  RH  092%=      5-min Rain = 0
KAI1 230957Z 16012KT 21/20 A2987 RMK A01 T02100196  RH  092%=      5-min Rain = 0
KAI1 230958Z 16012KT 21/20 A2987 RMK A01 T02090196  RH  092%=      5-min Rain = 0
KAI1 230959Z 16012KT 21/20 A2988 RMK A01 T02090196  RH  092%=      5-min Rain = 0
KAI1 231000Z 16011KT 21/20 A2988 RMK A01 T02090196  RH  092%=      5-min Rain = 0
KAI1 231001Z 16012KT 21/20 A2988 RMK A01 T02090196  RH  093%=      5-min Rain = 0
KAI1 231002Z 16011KT 21/20 A2988 RMK A01 T02090196  RH  093%=      5-min Rain = 0
KAI1 231003Z 16012KT 21/20 A2988 RMK A01 T02090196  RH  093%=      5-min Rain = 0
KAI1 231004Z 16012KT 21/20 A2988 RMK A01 T02080196  RH  093%=      5-min Rain = 0
KAI1 231005Z 16011KT 21/20 A2988 RMK A01 T02090197  RH  093%=      5-min Rain = 0
KAI1 231006Z 16012KT 21/20 A2988 RMK A01 T02090197  RH  093%=      5-min Rain = 0
KAI1 231007Z 16012KT 21/20 A2988 RMK A01 T02080197  RH  093%=      5-min Rain = 0
KAI1 231008Z 16012KT 21/20 A2988 RMK A01 T02090197  RH  093%=      5-min Rain = 0
KAI1 231009Z 16011KT 21/20 A2988 RMK A01 T02090197  RH  093%=      5-min Rain = 0
KAI1 231010Z 16011KT 21/20 A2988 RMK A01 T02090197  RH  093%=      5-min Rain = 0
KAI1 231011Z 16011KT 21/20 A2988 RMK A01 T02080197  RH  093%=      5-min Rain = 0
KAI1 231012Z 16012KT 21/20 A2988 RMK A01 T02090197  RH  093%=      5-min Rain = 0
KAI1 231013Z 16012KT 21/20 A2988 RMK A01 T02090197  RH  093%=      5-min Rain = 0
KAI1 231014Z 16010KT 21/20 A2988 RMK A01 T02090197  RH  093%=      5-min Rain = 0
KAI1 231015Z 16011KT 21/20 A2988 RMK A01 T02090197  RH  093%=      5-min Rain = 0
KAI1 231016Z 16011KT 21/20 A2988 RMK A01 T02080196  RH  093%=      5-min Rain = 0
KAI1 231017Z 16012KT 21/20 A2988 RMK A01 T02080196  RH  093%=      5-min Rain = 0
KAI1 231018Z 15011KT 21/20 A2988 RMK A01 T02080196  RH  093%=      5-min Rain = 0
KAI1 231019Z 16011KT 21/20 A2988 RMK A01 T02080196  RH  093%=      5-min Rain = 0
KAI1 231020Z 16011KT 21/20 A2988 RMK A01 T02080196  RH  093%=      5-min Rain = 0
KAI1 231021Z 15013KT 21/20 A2988 RMK A01 T02080196  RH  093%=      5-min Rain = 0
KAI1 231022Z 15013KT 21/20 A2988 RMK A01 T02080196  RH  093%=      5-min Rain = 0
KAI1 231023Z 16012KT 21/20 A2988 RMK A01 T02080196  RH  093%=      5-min Rain = 0
KAI1 231024Z 16011KT 21/20 A2988 RMK A01 T02080196  RH  093%=      5-min Rain = 0
KAI1 231025Z 16011KT 21/20 A2988 RMK A01 T02080196  RH  093%=      5-min Rain = 0
KAI1 231026Z 16011KT 21/20 A2988 RMK A01 T02080196  RH  093%=      5-min Rain = 0
KAI1 231027Z 16010KT 21/20 A2988 RMK A01 T02080196  RH  093%=      5-min Rain = 0
KAI1 231028Z 16011KT 21/20 A2988 RMK A01 T02080196  RH  093%=      5-min Rain = 0
KAI1 231029Z 15011KT 21/20 A2988 RMK A01 T02080196  RH  093%=      5-min Rain = 0
KAI1 231030Z 15010KT 21/20 A2988 RMK A01 T02080196  RH  093%=      5-min Rain = 0
KAI1 231031Z 15010KT 21/20 A2988 RMK A01 T02080196  RH  093%=      5-min Rain = 0
KAI1 231032Z 15010KT 21/20 A2988 RMK A01 T02080196  RH  093%=      5-min Rain = 0
KAI1 231033Z 16010KT 21/20 A2988 RMK A01 T02080196  RH  093%=      5-min Rain = 0
KAI1 231034Z 15011KT 21/20 A2988 RMK A01 T02070196  RH  093%=      5-min Rain = 0
KAI1 231035Z 16011KT 21/20 A2988 RMK A01 T02070196  RH  093%=      5-min Rain = 0
KAI1 231036Z 16011KT 21/20 A2989 RMK A01 T02070196  RH  093%=      5-min Rain = 0
KAI1 231037Z 16010KT 21/20 A2989 RMK A01 T02070196  RH  093%=      5-min Rain = 0
KAI1 231038Z 16011KT 21/20 A2989 RMK A01 T02070196  RH  093%=      5-min Rain = 0
KAI1 231039Z 16009KT 21/20 A2989 RMK A01 T02070196  RH  093%=      5-min Rain = 0
KAI1 231040Z 16009KT 21/20 A2989 RMK A01 T02070196  RH  093%=      5-min Rain = 0
KAI1 231041Z 16009KT 21/20 A2989 RMK A01 T02070196  RH  093%=      5-min Rain = 0
KAI1 231042Z 16010KT 21/20 A2989 RMK A01 T02070196  RH  093%=      5-min Rain = 0
KAI1 231043Z 16009KT 21/20 A2989 RMK A01 T02070196  RH  093%=      5-min Rain = 0
KAI1 231044Z 16009KT 21/20 A2989 RMK A01 T02070196  RH  093%=      5-min Rain = 0
KAI1 231045Z 16009KT 21/20 A2989 RMK A01 T02070196  RH  093%=      5-min Rain = 0
KAI1 231046Z 16009KT 21/20 A2989 RMK A01 T02070196  RH  093%=      5-min Rain = 0
KAI1 231047Z 16010KT 21/20 A2989 RMK A01 T02060195  RH  093%=      5-min Rain = 0
KAI1 231048Z 16009KT 21/20 A2989 RMK A01 T02060195  RH  093%=      5-min Rain = 0
KAI1 231049Z 16009KT 21/20 A2989 RMK A01 T02060195  RH  094%=      5-min Rain = 0
KAI1 231050Z 16008KT 21/20 A2989 RMK A01 T02060195  RH  094%=      5-min Rain = 0
KAI1 231051Z 16009KT 21/20 A2989 RMK A01 T02050195  RH  094%=      5-min Rain = 0
KAI1 231052Z 16009KT 21/20 A2989 RMK A01 T02050195  RH  094%=      5-min Rain = 0
KAI1 231053Z 16008KT 21/20 A2989 RMK A01 T02050195  RH  094%=      5-min Rain = 0
KAI1 231054Z 16008KT 21/19 A2989 RMK A01 T02050194  RH  094%=      5-min Rain = 0
KAI1 231055Z 16008KT 20/19 A2989 RMK A01 T02040194  RH  094%=      5-min Rain = 0
KAI1 231056Z 16009KT 20/19 A2989 RMK A01 T02040194  RH  094%=      5-min Rain = 0
KAI1 231057Z 16008KT 20/19 A2989 RMK A01 T02040194  RH  094%=      5-min Rain = 0
KAI1 231058Z 16008KT 20/19 A2989 RMK A01 T02040194  RH  094%=      5-min Rain = 0
KAI1 231059Z 16008KT 20/19 A2989 RMK A01 T02030193  RH  094%=      5-min Rain = 0
KAI1 231100Z 16009KT 20/19 A2989 RMK A01 T02030193  RH  094%=      5-min Rain = 0
KAI1 231101Z 16008KT 20/19 A2989 RMK A01 T02030193  RH  094%=      5-min Rain = 0
KAI1 231102Z 15008KT 20/19 A2989 RMK A01 T02030193  RH  094%=      5-min Rain = 0
KAI1 231103Z 15009KT 20/19 A2989 RMK A01 T02030193  RH  094%=      5-min Rain = 0
KAI1 231104Z 15009KT 20/19 A2989 RMK A01 T02030193  RH  094%=      5-min Rain = 0
KAI1 231105Z 15009KT 20/19 A2989 RMK A01 T02030193  RH  094%=      5-min Rain = 0
KAI1 231106Z 14009KT 20/19 A2989 RMK A01 T02030193  RH  094%=      5-min Rain = 0
KAI1 231107Z 14009KT 20/19 A2989 RMK A01 T02030192  RH  094%=      5-min Rain = 0
KAI1 231108Z 14009KT 20/19 A2989 RMK A01 T02030193  RH  094%=      5-min Rain = 0
KAI1 231109Z 14009KT 20/19 A2989 RMK A01 T02020192  RH  094%=      5-min Rain = 0
KAI1 231110Z 14009KT 20/19 A2989 RMK A01 T02020192  RH  094%=      5-min Rain = 0
KAI1 231111Z 14008KT 20/19 A2989 RMK A01 T02020192  RH  094%=      5-min Rain = 0
KAI1 231112Z 14009KT 20/19 A2989 RMK A01 T02020192  RH  094%=      5-min Rain = 0
KAI1 231113Z 14009KT 20/19 A2989 RMK A01 T02020192  RH  094%=      5-min Rain = 0
KAI1 231114Z 14009KT 20/19 A2989 RMK A01 T02020192  RH  094%=      5-min Rain = 0
KAI1 231115Z 14008KT 20/19 A2989 RMK A01 T02010191  RH  094%=      5-min Rain = 0
KAI1 231116Z 14008KT 20/19 A2989 RMK A01 T02010191  RH  094%=      5-min Rain = 0
KAI1 231117Z 14008KT 20/19 A2989 RMK A01 T02010191  RH  094%=      5-min Rain = 0
KAI1 231118Z 14009KT 20/19 A2989 RMK A01 T02000191  RH  094%=      5-min Rain = 0
KAI1 231119Z 14008KT 20/19 A2989 RMK A01 T02000191  RH  094%=      5-min Rain = 0
KAI1 231120Z 14008KT 20/19 A2989 RMK A01 T02000191  RH  094%=      5-min Rain = 0
KAI1 231121Z 14008KT 20/19 A2989 RMK A01 T02000191  RH  094%=      5-min Rain = 0
KAI1 231122Z 14008KT 20/19 A2989 RMK A01 T02000191  RH  095%=      5-min Rain = 0
KAI1 231123Z 14008KT 20/19 A2989 RMK A01 T02000191  RH  095%=      5-min Rain = 0
KAI1 231124Z 14008KT 20/19 A2989 RMK A01 T02000191  RH  095%=      5-min Rain = 0
KAI1 231125Z 14009KT 20/19 A2989 RMK A01 T01990191  RH  095%=      5-min Rain = 0
KAI1 231126Z 14009KT 20/19 A2989 RMK A01 T01990191  RH  095%=      5-min Rain = 0
KAI1 231127Z 14009KT 20/19 A2989 RMK A01 T01990191  RH  095%=      5-min Rain = 0
KAI1 231128Z 14010KT 20/19 A2989 RMK A01 T02000191  RH  095%=      5-min Rain = 0
KAI1 231129Z 15010KT 20/19 A2989 RMK A01 T01990191  RH  095%=      5-min Rain = 0
KAI1 231130Z 14010KT 20/19 A2989 RMK A01 T01990190  RH  095%=      5-min Rain = 0
KAI1 231131Z 14010KT 20/19 A2989 RMK A01 T02000191  RH  095%=      5-min Rain = 0
KAI1 231132Z 14011KT 20/19 A2989 RMK A01 T02000191  RH  095%=      5-min Rain = 0
KAI1 231133Z 14012KT 20/19 A2989 RMK A01 T02000191  RH  095%=      5-min Rain = 0
KAI1 231134Z 14012KT 20/19 A2989 RMK A01 T02000191  RH  095%=      5-min Rain = 0
KAI1 231135Z 14013KT 20/19 A2989 RMK A01 T02000191  RH  095%=      5-min Rain = 0
KAI1 231136Z 15012KT 20/19 A2989 RMK A01 T02010192  RH  095%=      5-min Rain = 0
KAI1 231137Z 15013KT 20/19 A2989 RMK A01 T02010192  RH  095%=      5-min Rain = 0
KAI1 231138Z 14013KT 20/19 A2989 RMK A01 T02020193  RH  094%=      5-min Rain = 0
KAI1 231139Z 15012KT 20/19 A2989 RMK A01 T02020193  RH  094%=      5-min Rain = 0
KAI1 231140Z 14013KT 20/19 A2989 RMK A01 T02020192  RH  094%=      5-min Rain = 0
KAI1 231141Z 15013KT 20/19 A2989 RMK A01 T02030192  RH  094%=      5-min Rain = 0
KAI1 231142Z 14013KT 20/19 A2989 RMK A01 T02030193  RH  094%=      5-min Rain = 0
KAI1 231143Z 14013KT 20/19 A2989 RMK A01 T02030193  RH  094%=      5-min Rain = 0
KAI1 231144Z 14014KT 20/19 A2989 RMK A01 T02030193  RH  094%=      5-min Rain = 0
KAI1 231145Z 14014KT 20/19 A2989 RMK A01 T02040193  RH  094%=      5-min Rain = 0
KAI1 231146Z 14014KT 20/19 A2989 RMK A01 T02040193  RH  094%=      5-min Rain = 0
KAI1 231147Z 14012KT 20/19 A2989 RMK A01 T02040193  RH  094%=      5-min Rain = 0
KAI1 231148Z 14013KT 21/19 A2989 RMK A01 T02050194  RH  093%=      5-min Rain = 0
KAI1 231149Z 14015KT 21/19 A2989 RMK A01 T02050194  RH  094%=      5-min Rain = 0
KAI1 231150Z 14015KT 21/19 A2989 RMK A01 T02050194  RH  094%=      5-min Rain = 0
KAI1 231151Z 14014KT 21/19 A2989 RMK A01 T02050194  RH  093%=      5-min Rain = 0
KAI1 231152Z 14013KT 21/19 A2989 RMK A01 T02060194  RH  093%=      5-min Rain = 0
KAI1 231153Z 14013KT 21/19 A2989 RMK A01 T02050194  RH  093%=      5-min Rain = 0
KAI1 231154Z 14014KT 21/19 A2989 RMK A01 T02050194  RH  093%=      5-min Rain = 0
KAI1 231155Z 14015KT 21/19 A2989 RMK A01 T02050194  RH  093%=      5-min Rain = 0
KAI1 231156Z 14013KT 21/19 A2989 RMK A01 T02050194  RH  093%=      5-min Rain = 0
KAI1 231157Z 14013KT 21/19 A2989 RMK A01 T02050194  RH  093%=      5-min Rain = 0
KAI1 231158Z 13012KT 21/19 A2989 RMK A01 T02050194  RH  093%=      5-min Rain = 0
KAI1 231159Z 14013KT 21/19 A2989 RMK A01 T02050194  RH  093%=      5-min Rain = 0
KAI1 231200Z 13013KT 21/19 A2989 RMK A01 T02050194  RH  093%=      5-min Rain = 0
KAI1 231201Z 13013KT 21/19 A2988 RMK A01 T02050194  RH  094%=      5-min Rain = 0
KAI1 231202Z 13013KT 21/19 A2988 RMK A01 T02050194  RH  094%=      5-min Rain = 0
KAI1 231203Z 13013KT 20/19 A2988 RMK A01 T02040194  RH  094%=      5-min Rain = 0
KAI1 231204Z 13013KT 20/19 A2988 RMK A01 T02040194  RH  094%=      5-min Rain = 0
KAI1 231205Z 13012KT 20/19 A2988 RMK A01 T02040194  RH  094%=      5-min Rain = 0
KAI1 231206Z 14013KT 21/19 A2988 RMK A01 T02050194  RH  094%=      5-min Rain = 0
KAI1 231207Z 13012KT 20/19 A2988 RMK A01 T02040194  RH  094%=      5-min Rain = 0
KAI1 231208Z 13012KT 20/19 A2988 RMK A01 T02040194  RH  094%=      5-min Rain = 0
KAI1 231209Z 13012KT 20/19 A2988 RMK A01 T02040194  RH  094%=      5-min Rain = 0
KAI1 231210Z 13011KT 20/19 A2988 RMK A01 T02040194  RH  094%=      5-min Rain = 0
KAI1 231211Z 13012KT 21/19 A2988 RMK A01 T02050194  RH  094%=      5-min Rain = 0
KAI1 231212Z 13012KT 20/19 A2988 RMK A01 T02040194  RH  094%=      5-min Rain = 0
KAI1 231213Z 13012KT 20/19 A2988 RMK A01 T02040194  RH  094%=      5-min Rain = 0
KAI1 231214Z 13013KT 20/19 A2988 RMK A01 T02040194  RH  094%=      5-min Rain = 0
KAI1 231215Z 13014KT 20/19 A2988 RMK A01 T02040194  RH  094%=      5-min Rain = 0
KAI1 231216Z 13013KT 21/20 A2988 RMK A01 T02050195  RH  094%=      5-min Rain = 0
KAI1 231217Z 13015KT 21/20 A2988 RMK A01 T02050195  RH  094%=      5-min Rain = 0
KAI1 231218Z 14015KT 21/20 A2988 RMK A01 T02050195  RH  094%=      5-min Rain = 0
KAI1 231219Z 14013KT 21/20 A2988 RMK A01 T02060195  RH  094%=      5-min Rain = 0
KAI1 231220Z 14014KT 21/20 A2988 RMK A01 T02060195  RH  093%=      5-min Rain = 0
KAI1 231221Z 14013KT 21/20 A2988 RMK A01 T02060195  RH  093%=      5-min Rain = 0
KAI1 231222Z 14014KT 21/20 A2989 RMK A01 T02070195  RH  093%=      5-min Rain = 0
KAI1 231223Z 14013KT 21/20 A2989 RMK A01 T02070195  RH  093%=      5-min Rain = 0
KAI1 231224Z 14014KT 21/20 A2988 RMK A01 T02070195  RH  093%=      5-min Rain = 0
KAI1 231225Z 14013KT 21/20 A2989 RMK A01 T02070195  RH  093%=      5-min Rain = 0
KAI1 231226Z 14012KT 21/20 A2989 RMK A01 T02080196  RH  093%=      5-min Rain = 0
KAI1 231227Z 14013KT 21/20 A2989 RMK A01 T02080195  RH  093%=      5-min Rain = 0
KAI1 231228Z 14013KT 21/20 A2989 RMK A01 T02080195  RH  092%=      5-min Rain = 0
KAI1 231229Z 14013KT 21/20 A2989 RMK A01 T02080196  RH  092%=      5-min Rain = 0
KAI1 231230Z 14014KT 21/20 A2989 RMK A01 T02090196  RH  092%=      5-min Rain = 0
KAI1 231231Z 14014KT 21/20 A2989 RMK A01 T02090196  RH  092%=      5-min Rain = 0
KAI1 231232Z 14015KT 21/20 A2989 RMK A01 T02090196  RH  092%=      5-min Rain = 0
KAI1 231233Z 14014KT 21/20 A2989 RMK A01 T02090196  RH  092%=      5-min Rain = 0
KAI1 231234Z 14014KT 21/20 A2989 RMK A01 T02090196  RH  092%=      5-min Rain = 0
KAI1 231235Z 14014KT 21/20 A2989 RMK A01 T02100196  RH  092%=      5-min Rain = 0
KAI1 231236Z 14014KT 21/20 A2989 RMK A01 T02100196  RH  092%=      5-min Rain = 0
KAI1 231237Z 14014KT 21/20 A2989 RMK A01 T02100196  RH  092%=      5-min Rain = 0
KAI1 231238Z 14013KT 21/20 A299 RMK A01 T02100196  RH  092%=      5-min Rain = 0
KAI1 231239Z 14013KT 21/20 A2989 RMK A01 T02100196  RH  091%=      5-min Rain = 0
KAI1 231240Z 14014KT 21/20 A299 RMK A01 T02110196  RH  091%=      5-min Rain = 0
KAI1 231241Z 14013KT 21/20 A299 RMK A01 T02100196  RH  091%=      5-min Rain = 0
KAI1 231242Z 14014KT 21/20 A299 RMK A01 T02110196  RH  091%=      5-min Rain = 0
KAI1 231243Z 14013KT 21/20 A299 RMK A01 T02110196  RH  091%=      5-min Rain = 0
KAI1 231244Z 14013KT 21/20 A299 RMK A01 T02110196  RH  091%=      5-min Rain = 0
KAI1 231245Z 14014KT 21/20 A299 RMK A01 T02120197  RH  091%=      5-min Rain = 0
KAI1 231246Z 14013KT 21/20 A299 RMK A01 T02110196  RH  091%=      5-min Rain = 0
KAI1 231247Z 14012KT 21/20 A299 RMK A01 T02120196  RH  091%=      5-min Rain = 0
KAI1 231248Z 14014KT 21/20 A299 RMK A01 T02120196  RH  091%=      5-min Rain = 0
KAI1 231249Z 14013KT 21/20 A299 RMK A01 T02120196  RH  091%=      5-min Rain = 0
KAI1 231250Z 14014KT 21/20 A299 RMK A01 T02120196  RH  090%=      5-min Rain = 0
KAI1 231251Z 14011KT 21/20 A299 RMK A01 T02130197  RH  090%=      5-min Rain = 0
KAI1 231252Z 14014KT 21/20 A299 RMK A01 T02130197  RH  090%=      5-min Rain = 0
KAI1 231253Z 14014KT 21/20 A299 RMK A01 T02140197  RH  090%=      5-min Rain = 0
KAI1 231254Z 14013G18KT 21/20 A299 RMK A01 T02140197  RH  090%=      5-min Rain = 0
KAI1 231255Z 13015KT 21/20 A299 RMK A01 T02140196  RH  090%=      5-min Rain = 0
KAI1 231256Z 13015KT 21/20 A299 RMK A01 T02140196  RH  090%=      5-min Rain = 0
KAI1 231257Z 13015KT 21/20 A299 RMK A01 T02140197  RH  090%=      5-min Rain = 0
KAI1 231258Z 14013KT 21/20 A299 RMK A01 T02140197  RH  090%=      5-min Rain = 0
KAI1 231259Z 14014KT 21/20 A299 RMK A01 T02140197  RH  090%=      5-min Rain = 0
KAI1 231300Z 14015G20KT 22/20 A299 RMK A01 T02150197  RH  090%=      5-min Rain = 0
KAI1 231301Z 14014KT 22/20 A299 RMK A01 T02150197  RH  089%=      5-min Rain = 0
KAI1 231302Z 14015KT 22/20 A299 RMK A01 T02150197  RH  089%=      5-min Rain = 0
KAI1 231303Z 14014KT 22/20 A299 RMK A01 T02160197  RH  089%=      5-min Rain = 0
KAI1 231304Z 14013KT 22/20 A299 RMK A01 T02160197  RH  089%=      5-min Rain = 0
KAI1 231305Z 14015KT 22/20 A299 RMK A01 T02170197  RH  089%=      5-min Rain = 0
KAI1 231306Z 14014KT 22/20 A299 RMK A01 T02170197  RH  088%=      5-min Rain = 0
KAI1 231307Z 14015KT 22/20 A299 RMK A01 T02180197  RH  088%=      5-min Rain = 0
KAI1 231308Z 14015KT 22/20 A299 RMK A01 T02180198  RH  088%=      5-min Rain = 0
KAI1 231309Z 14015KT 22/20 A299 RMK A01 T02190198  RH  088%=      5-min Rain = 0
KAI1 231310Z 14016KT 22/20 A299 RMK A01 T02190198  RH  087%=      5-min Rain = 0
KAI1 231311Z 14014KT 22/20 A299 RMK A01 T02200198  RH  087%=      5-min Rain = 0
KAI1 231312Z 14014KT 22/20 A299 RMK A01 T02200198  RH  087%=      5-min Rain = 0
KAI1 231313Z 13015KT 22/20 A299 RMK A01 T02200197  RH  087%=      5-min Rain = 0
KAI1 231314Z 13014KT 22/20 A299 RMK A01 T02200198  RH  087%=      5-min Rain = 0
KAI1 231315Z 14014KT 22/20 A299 RMK A01 T02200198  RH  087%=      5-min Rain = 0
KAI1 231316Z 14014KT 22/20 A299 RMK A01 T02210198  RH  087%=      5-min Rain = 0
KAI1 231317Z 13015G20KT 22/20 A299 RMK A01 T02210198  RH  087%=      5-min Rain = 0
KAI1 231318Z 14016KT 22/20 A299 RMK A01 T02220198  RH  086%=      5-min Rain = 0
KAI1 231319Z 14016KT 22/20 A299 RMK A01 T02220198  RH  086%=      5-min Rain = 0
KAI1 231320Z 14014KT 22/20 A2991 RMK A01 T02220198  RH  086%=      5-min Rain = 0
KAI1 231321Z 14014KT 22/20 A2991 RMK A01 T02230198  RH  086%=      5-min Rain = 0
KAI1 231322Z 14012KT 22/20 A2991 RMK A01 T02230199  RH  086%=      5-min Rain = 0
KAI1 231323Z 13016KT 22/20 A299 RMK A01 T02240199  RH  086%=      5-min Rain = 0
KAI1 231324Z 14013KT 22/20 A2991 RMK A01 T02240199  RH  085%=      5-min Rain = 0
KAI1 231325Z 14015KT 22/20 A2991 RMK A01 T02240199  RH  086%=      5-min Rain = 0
KAI1 231326Z 14015KT 22/20 A2991 RMK A01 T02240198  RH  085%=      5-min Rain = 0
KAI1 231327Z 13014KT 23/20 A2991 RMK A01 T02250199  RH  085%=      5-min Rain = 0
KAI1 231328Z 13015KT 23/20 A2991 RMK A01 T02250199  RH  085%=      5-min Rain = 0
KAI1 231329Z 13017KT 23/20 A2991 RMK A01 T02260199  RH  085%=      5-min Rain = 0
KAI1 231330Z 13015KT 23/20 A2991 RMK A01 T02250199  RH  085%=      5-min Rain = 0
KAI1 231331Z 13015KT 23/20 A2991 RMK A01 T02250200  RH  086%=      5-min Rain = 0
KAI1 231332Z 13014KT 23/20 A2991 RMK A01 T02250200  RH  086%=      5-min Rain = 0
KAI1 231333Z 13014KT 23/20 A2991 RMK A01 T02260200  RH  085%=      5-min Rain = 0
KAI1 231334Z 14015KT 23/20 A2991 RMK A01 T02270200  RH  085%=      5-min Rain = 0
KAI1 231335Z 14015KT 23/20 A2991 RMK A01 T02270200  RH  085%=      5-min Rain = 0
KAI1 231336Z 14015KT 23/20 A2991 RMK A01 T02260200  RH  085%=      5-min Rain = 0
KAI1 231337Z 14015KT 23/20 A2991 RMK A01 T02260200  RH  085%=      5-min Rain = 0
KAI1 231338Z 14015KT 23/20 A2991 RMK A01 T02260200  RH  085%=      5-min Rain = 0
KAI1 231339Z 14014KT 23/20 A2991 RMK A01 T02260200  RH  085%=      5-min Rain = 0
KAI1 231340Z 14012KT 23/20 A2991 RMK A01 T02260200  RH  085%=      5-min Rain = 0
KAI1 231341Z 15017KT 23/20 A2991 RMK A01 T02260200  RH  085%=      5-min Rain = 0
KAI1 231342Z 14018KT 23/20 A2991 RMK A01 T02260200  RH  085%=      5-min Rain = 0
KAI1 231343Z 14015KT 23/20 A2991 RMK A01 T02260200  RH  085%=      5-min Rain = 0
KAI1 231344Z 14019KT 23/20 A2991 RMK A01 T02260200  RH  085%=      5-min Rain = 0
KAI1 231345Z 15018KT 23/20 A2991 RMK A01 T02260200  RH  085%=      5-min Rain = 0
KAI1 231346Z 15018KT 23/20 A2991 RMK A01 T02270200  RH  085%=      5-min Rain = 0
KAI1 231347Z 15018KT 23/20 A2991 RMK A01 T02270200  RH  085%=      5-min Rain = 0
KAI1 231348Z 15018KT 23/20 A2991 RMK A01 T02270200  RH  085%=      5-min Rain = 0
KAI1 231349Z 16018KT 23/20 A2991 RMK A01 T02270200  RH  085%=      5-min Rain = 0
KAI1 231350Z 15015KT 23/20 A2991 RMK A01 T02270200  RH  085%=      5-min Rain = 0
KAI1 231351Z 15016KT 23/20 A2991 RMK A01 T02270200  RH  085%=      5-min Rain = 0
KAI1 231352Z 15019KT 23/20 A2991 RMK A01 T02280199  RH  084%=      5-min Rain = 0
KAI1 231353Z 15022G27KT 23/20 A299 RMK A01 T02280199  RH  084%=      5-min Rain = 0
KAI1 231354Z 16022KT 23/20 A299 RMK A01 T02280198  RH  083%=      5-min Rain = 0
KAI1 231355Z 16019G24KT 23/20 A299 RMK A01 T02290199  RH  083%=      5-min Rain = 0
KAI1 231356Z 16022KT 23/20 A299 RMK A01 T02280199  RH  083%=      5-min Rain = 0
KAI1 231357Z 15019KT 23/20 A299 RMK A01 T02280199  RH  084%=      5-min Rain = 0
KAI1 231358Z 15019G26KT 23/20 A2991 RMK A01 T02280200  RH  084%=      5-min Rain = 0
KAI1 231359Z 15022G27KT 23/20 A299 RMK A01 T02280199  RH  084%=      5-min Rain = 0
KAI1 231400Z 16021KT 23/20 A299 RMK A01 T02290199  RH  083%=      5-min Rain = 0
KAI1 231401Z 15023KT 23/20 A299 RMK A01 T02290199  RH  083%=      5-min Rain = 0
KAI1 231402Z 15021KT 23/20 A299 RMK A01 T02290199  RH  083%=      5-min Rain = 0
KAI1 231403Z 15019KT 23/20 A299 RMK A01 T02300200  RH  083%=      5-min Rain = 0
KAI1 231404Z 15020KT 23/20 A299 RMK A01 T02300200  RH  083%=      5-min Rain = 0
KAI1 231405Z 15021KT 23/20 A299 RMK A01 T02310200  RH  083%=      5-min Rain = 0
KAI1 231406Z 16019KT 23/20 A299 RMK A01 T02310200  RH  083%=      5-min Rain = 0
KAI1 231407Z 16023KT 23/20 A299 RMK A01 T02310199  RH  082%=      5-min Rain = 0
KAI1 231408Z 16018G24KT 23/20 A299 RMK A01 T02300200  RH  083%=      5-min Rain = 0
KAI1 231409Z 15019G25KT 23/20 A299 RMK A01 T02310200  RH  083%=      5-min Rain = 0
KAI1 231410Z 16021KT 23/20 A299 RMK A01 T02310200  RH  083%=      5-min Rain = 0
KAI1 231411Z 16019KT 23/20 A299 RMK A01 T02310200  RH  083%=      5-min Rain = 0
KAI1 231412Z 16021KT 23/20 A299 RMK A01 T02310200  RH  083%=      5-min Rain = 0
KAI1 231413Z 16019KT 23/20 A299 RMK A01 T02310200  RH  083%=      5-min Rain = 0
KAI1 231414Z 16020KT 23/20 A299 RMK A01 T02310200  RH  083%=      5-min Rain = 0
KAI1 231415Z 15019KT 23/20 A299 RMK A01 T02320201  RH  083%=      5-min Rain = 0
KAI1 231416Z 16020KT 23/20 A299 RMK A01 T02340201  RH  082%=      5-min Rain = 0
KAI1 231417Z 16019KT 24/20 A299 RMK A01 T02350201  RH  081%=      5-min Rain = 0
KAI1 231418Z 16017KT 24/20 A299 RMK A01 T02350201  RH  081%=      5-min Rain = 0
KAI1 231419Z 16019KT 24/20 A299 RMK A01 T02360201  RH  081%=      5-min Rain = 0
KAI1 231420Z 16020KT 24/20 A299 RMK A01 T02360201  RH  081%=      5-min Rain = 0
KAI1 231421Z 16019KT 24/20 A299 RMK A01 T02350201  RH  081%=      5-min Rain = 0
KAI1 231422Z 16020KT 24/20 A299 RMK A01 T02350201  RH  081%=      5-min Rain = 0
KAI1 231423Z 16019KT 24/20 A299 RMK A01 T02350201  RH  081%=      5-min Rain = 0
KAI1 231424Z 16019KT 23/20 A299 RMK A01 T02340201  RH  081%=      5-min Rain = 0
KAI1 231425Z 16020KT 23/20 A299 RMK A01 T02340201  RH  081%=      5-min Rain = 0
KAI1 231426Z 16021KT 23/20 A299 RMK A01 T02340201  RH  081%=      5-min Rain = 0
KAI1 231427Z 17020KT 23/20 A299 RMK A01 T02340200  RH  081%=      5-min Rain = 0
KAI1 231428Z 17018KT 23/20 A299 RMK A01 T02330200  RH  082%=      5-min Rain = 0
KAI1 231429Z 16020KT 23/20 A299 RMK A01 T02330201  RH  082%=      5-min Rain = 0
KAI1 231430Z 16021KT 23/20 A299 RMK A01 T02330200  RH  082%=      5-min Rain = 0
KAI1 231431Z 17021KT 23/20 A299 RMK A01 T02330200  RH  081%=      5-min Rain = 0
KAI1 231432Z 17019KT 23/20 A2991 RMK A01 T02330199  RH  081%=      5-min Rain = 0
KAI1 231433Z 17018KT 24/20 A299 RMK A01 T02350201  RH  081%=      5-min Rain = 0
KAI1 231434Z 17022KT 24/20 A299 RMK A01 T02360200  RH  080%=      5-min Rain = 0
KAI1 231435Z 16023KT 24/20 A299 RMK A01 T02360199  RH  079%=      5-min Rain = 0
KAI1 231436Z 16023KT 24/20 A299 RMK A01 T02370198  RH  079%=      5-min Rain = 0
KAI1 231437Z 16022G27KT 24/20 A299 RMK A01 T02380199  RH  079%=      5-min Rain = 0
KAI1 231438Z 16025KT 24/20 A299 RMK A01 T02380199  RH  079%=      5-min Rain = 0
KAI1 231439Z 17022KT 24/20 A299 RMK A01 T02380200  RH  079%=      5-min Rain = 0
KAI1 231440Z 17021KT 24/20 A299 RMK A01 T02370199  RH  079%=      5-min Rain = 0
KAI1 231441Z 16020KT 24/20 A299 RMK A01 T02370200  RH  080%=      5-min Rain = 0
KAI1 231442Z 17021KT 24/20 A299 RMK A01 T02370200  RH  080%=      5-min Rain = 0
KAI1 231443Z 17020KT 24/20 A299 RMK A01 T02370200  RH  079%=      5-min Rain = 0
KAI1 231444Z 17020KT 24/20 A2991 RMK A01 T02380200  RH  079%=      5-min Rain = 0
KAI1 231445Z 16022KT 24/20 A299 RMK A01 T02370199  RH  079%=      5-min Rain = 0
KAI1 231446Z 16022KT 24/20 A299 RMK A01 T02380199  RH  079%=      5-min Rain = 0
KAI1 231447Z 16022KT 24/20 A299 RMK A01 T02370199  RH  079%=      5-min Rain = 0
KAI1 231448Z 16021KT 24/20 A299 RMK A01 T02370199  RH  079%=      5-min Rain = 0
KAI1 231449Z 17017KT 24/20 A2991 RMK A01 T02370200  RH  079%=      5-min Rain = 0
KAI1 231450Z 16019KT 24/20 A299 RMK A01 T02380200  RH  079%=      5-min Rain = 0
KAI1 231451Z 16020KT 24/20 A299 RMK A01 T02380200  RH  079%=      5-min Rain = 0
KAI1 231452Z 16020KT 24/20 A299 RMK A01 T02390200  RH  079%=      5-min Rain = 0
KAI1 231453Z 16021KT 24/20 A299 RMK A01 T02390199  RH  078%=      5-min Rain = 0
KAI1 231454Z 16022KT 24/20 A299 RMK A01 T02400199  RH  078%=      5-min Rain = 0
KAI1 231455Z 17023KT 24/20 A299 RMK A01 T02400198  RH  077%=      5-min Rain = 0
KAI1 231456Z 16022KT 24/20 A299 RMK A01 T02390199  RH  078%=      5-min Rain = 0
KAI1 231457Z 16022KT 24/20 A299 RMK A01 T02380199  RH  078%=      5-min Rain = 0
KAI1 231458Z 16021KT 24/20 A299 RMK A01 T02380199  RH  079%=      5-min Rain = 0
KAI1 231459Z 16022KT 24/20 A299 RMK A01 T02380199  RH  079%=      5-min Rain = 0
KAI1 231500Z 17021KT 24/20 A299 RMK A01 T02370199  RH  079%=      5-min Rain = 0
KAI1 231501Z 16019KT 24/20 A2991 RMK A01 T02370200  RH  080%=      5-min Rain = 0
KAI1 231502Z 16020KT 24/20 A2991 RMK A01 T02370199  RH  080%=      5-min Rain = 0
KAI1 231503Z 17018KT 24/20 A2991 RMK A01 T02370199  RH  080%=      5-min Rain = 0
KAI1 231504Z 17019KT 24/20 A2991 RMK A01 T02370199  RH  079%=      5-min Rain = 0
KAI1 231505Z 17020KT 24/20 A299 RMK A01 T02370199  RH  079%=      5-min Rain = 0
KAI1 231506Z 16021KT 24/20 A299 RMK A01 T02380199  RH  079%=      5-min Rain = 0
KAI1 231507Z 17023KT 24/20 A299 RMK A01 T02380199  RH  079%=      5-min Rain = 0
KAI1 231508Z 17021KT 24/20 A2991 RMK A01 T02380199  RH  079%=      5-min Rain = 0
KAI1 231509Z 17021KT 24/20 A2991 RMK A01 T02380199  RH  079%=      5-min Rain = 0
KAI1 231510Z 17020KT 24/20 A2991 RMK A01 T02380199  RH  079%=      5-min Rain = 0
KAI1 231511Z 16017KT 24/20 A2991 RMK A01 T02390200  RH  079%=      5-min Rain = 0
KAI1 231512Z 16016KT 24/20 A2991 RMK A01 T02390200  RH  079%=      5-min Rain = 0
KAI1 231513Z 17019KT 24/20 A2991 RMK A01 T02390200  RH  079%=      5-min Rain = 0
KAI1 231514Z 17021KT 24/20 A2991 RMK A01 T02390199  RH  078%=      5-min Rain = 0
KAI1 231515Z 17020KT 24/20 A2991 RMK A01 T02380199  RH  079%=      5-min Rain = 0
KAI1 231516Z 16020KT 24/20 A2991 RMK A01 T02380199  RH  079%=      5-min Rain = 0
KAI1 231517Z 16018KT 24/20 A2991 RMK A01 T02380198  RH  078%=      5-min Rain = 0
KAI1 231518Z 16022KT 24/20 A2991 RMK A01 T02390199  RH  078%=      5-min Rain = 0
KAI1 231519Z 16020G25KT 24/20 A2991 RMK A01 T02380199  RH  078%=      5-min Rain = 0
KAI1 231520Z 17022KT 24/20 A2991 RMK A01 T02380199  RH  079%=      5-min Rain = 0
KAI1 231521Z 16022KT 24/20 A2991 RMK A01 T02380199  RH  079%=      5-min Rain = 0
KAI1 231522Z 17024KT 24/20 A2991 RMK A01 T02370198  RH  079%=      5-min Rain = 0
KAI1 231523Z 17023KT 24/20 A2991 RMK A01 T02370198  RH  078%=      5-min Rain = 0
KAI1 231524Z 17021G26KT 24/20 A2991 RMK A01 T02380198  RH  078%=      5-min Rain = 0
KAI1 231525Z 17023KT 24/20 A2991 RMK A01 T02380198  RH  078%=      5-min Rain = 0
KAI1 231526Z 17025KT 24/20 A2991 RMK A01 T02380199  RH  078%=      5-min Rain = 0
KAI1 231527Z 17020KT 24/20 A2991 RMK A01 T02380199  RH  078%=      5-min Rain = 0
KAI1 231528Z 17021KT 24/20 A2991 RMK A01 T02400199  RH  078%=      5-min Rain = 0
KAI1 231529Z 17019KT 24/20 A2991 RMK A01 T02410200  RH  078%=      5-min Rain = 0
KAI1 231530Z 17019KT 24/20 A2991 RMK A01 T02420200  RH  077%=      5-min Rain = 0
KAI1 231531Z 17021KT 24/20 A2991 RMK A01 T02430200  RH  077%=      5-min Rain = 0
KAI1 231532Z 17022KT 24/20 A2991 RMK A01 T02430199  RH  077%=      5-min Rain = 0
KAI1 231533Z 17021KT 24/20 A2991 RMK A01 T02430199  RH  077%=      5-min Rain = 0
KAI1 231534Z 16021KT 24/20 A2991 RMK A01 T02430199  RH  077%=      5-min Rain = 0
KAI1 231535Z 16023KT 24/20 A2991 RMK A01 T02430199  RH  076%=      5-min Rain = 0
KAI1 231536Z 16023KT 24/20 A2991 RMK A01 T02430199  RH  076%=      5-min Rain = 0
KAI1 231537Z 16021KT 24/20 A2991 RMK A01 T02420199  RH  077%=      5-min Rain = 0
KAI1 231538Z 17022KT 24/20 A2991 RMK A01 T02430200  RH  077%=      5-min Rain = 0
KAI1 231539Z 17020KT 24/20 A2991 RMK A01 T02420199  RH  077%=      5-min Rain = 0
KAI1 231540Z 16020G25KT 24/20 A2991 RMK A01 T02430199  RH  077%=      5-min Rain = 0
KAI1 231541Z 17019KT 24/20 A2991 RMK A01 T02430200  RH  077%=      5-min Rain = 0
KAI1 231542Z 16021KT 24/20 A2991 RMK A01 T02440199  RH  076%=      5-min Rain = 0
KAI1 231543Z 17021G26KT 24/20 A2991 RMK A01 T02440199  RH  076%=      5-min Rain = 0
KAI1 231544Z 17021KT 24/20 A2991 RMK A01 T02440199  RH  076%=      5-min Rain = 0
KAI1 231545Z 17021KT 24/20 A2991 RMK A01 T02440199  RH  076%=      5-min Rain = 0
KAI1 231546Z 17020KT 24/20 A2991 RMK A01 T02430198  RH  076%=      5-min Rain = 0
KAI1 231547Z 17021KT 24/20 A2991 RMK A01 T02430198  RH  076%=      5-min Rain = 0
KAI1 231548Z 17023KT 24/20 A299 RMK A01 T02430198  RH  076%=      5-min Rain = 0
KAI1 231549Z 16019KT 24/20 A2991 RMK A01 T02430198  RH  076%=      5-min Rain = 0
KAI1 231550Z 16021KT 24/20 A2991 RMK A01 T02440198  RH  076%=      5-min Rain = 0
KAI1 231551Z 16020G25KT 24/20 A2991 RMK A01 T02440199  RH  076%=      5-min Rain = 0
KAI1 231552Z 15022KT 24/20 A299 RMK A01 T02430199  RH  076%=      5-min Rain = 0
KAI1 231553Z 15023KT 24/20 A299 RMK A01 T02420199  RH  077%=      5-min Rain = 0
KAI1 231554Z 16023KT 24/20 A299 RMK A01 T02420199  RH  077%=      5-min Rain = 0
KAI1 231555Z 16022KT 24/20 A2991 RMK A01 T02410199  RH  077%=      5-min Rain = 0
KAI1 231556Z 16019KT 24/20 A299 RMK A01 T02410198  RH  077%=      5-min Rain = 0
KAI1 231557Z 16021KT 24/20 A299 RMK A01 T02410199  RH  077%=      5-min Rain = 0
KAI1 231558Z 16020KT 24/20 A2991 RMK A01 T02420199  RH  077%=      5-min Rain = 0
KAI1 231559Z 16019KT 24/20 A2991 RMK A01 T02420200  RH  077%=      5-min Rain = 0
KAI1 231600Z 16023KT 24/20 A299 RMK A01 T02440199  RH  076%=      5-min Rain = 0
KAI1 231601Z 16022KT 25/20 A2991 RMK A01 T02450199  RH  076%=      5-min Rain = 0
KAI1 231602Z 16023KT 25/20 A2991 RMK A01 T02460199  RH  075%=      5-min Rain = 0
KAI1 231603Z 16020KT 25/20 A2991 RMK A01 T02470199  RH  075%=      5-min Rain = 0
KAI1 231604Z 16018KT 25/20 A2991 RMK A01 T02480201  RH  075%=      5-min Rain = 0
KAI1 231605Z 16019KT 25/20 A299 RMK A01 T02510202  RH  074%=      5-min Rain = 0
KAI1 231606Z 16020KT 25/20 A2991 RMK A01 T02530202  RH  073%=      5-min Rain = 0
KAI1 231607Z 16022KT 25/20 A299 RMK A01 T02540201  RH  072%=      5-min Rain = 0
KAI1 231608Z 16023KT 25/20 A299 RMK A01 T02540200  RH  072%=      5-min Rain = 0
KAI1 231609Z 16021G26KT 26/20 A299 RMK A01 T02550200  RH  072%=      5-min Rain = 0
KAI1 231610Z 17022KT 26/20 A299 RMK A01 T02560200  RH  071%=      5-min Rain = 0
KAI1 231611Z 17022KT 26/20 A299 RMK A01 T02560200  RH  071%=      5-min Rain = 0
KAI1 231612Z 17021KT 26/20 A299 RMK A01 T02560200  RH  071%=      5-min Rain = 0
KAI1 231613Z 17022KT 26/20 A299 RMK A01 T02560200  RH  071%=      5-min Rain = 0
KAI1 231614Z 17022KT 26/20 A2991 RMK A01 T02550200  RH  071%=      5-min Rain = 0
KAI1 231615Z 16023G28KT 25/20 A299 RMK A01 T02540199  RH  072%=      5-min Rain = 0
KAI1 231616Z 16023KT 25/20 A299 RMK A01 T02540199  RH  071%=      5-min Rain = 0
KAI1 231617Z 17020KT 25/20 A299 RMK A01 T02540199  RH  071%=      5-min Rain = 0
KAI1 231618Z 16023KT 26/20 A299 RMK A01 T02550200  RH  072%=      5-min Rain = 0
KAI1 231619Z 16023KT 26/20 A299 RMK A01 T02550199  RH  071%=      5-min Rain = 0
KAI1 231620Z 16023KT 26/20 A299 RMK A01 T02560199  RH  071%=      5-min Rain = 0
KAI1 231621Z 17023KT 26/20 A299 RMK A01 T02570199  RH  070%=      5-min Rain = 0
KAI1 231622Z 17022KT 26/20 A299 RMK A01 T02570199  RH  070%=      5-min Rain = 0
KAI1 231623Z 17024KT 26/20 A299 RMK A01 T02560199  RH  070%=      5-min Rain = 0
KAI1 231624Z 17018KT 26/20 A299 RMK A01 T02560198  RH  070%=      5-min Rain = 0
KAI1 231625Z 15022G27KT 26/20 A299 RMK A01 T02560200  RH  071%=      5-min Rain = 0
KAI1 231626Z 17022KT 26/20 A299 RMK A01 T02560199  RH  071%=      5-min Rain = 0
KAI1 231627Z 17018KT 26/20 A299 RMK A01 T02570199  RH  070%=      5-min Rain = 0
KAI1 231628Z 16019KT 26/20 A299 RMK A01 T02590200  RH  070%=      5-min Rain = 0
KAI1 231629Z 16019KT 26/20 A299 RMK A01 T02600199  RH  069%=      5-min Rain = 0
KAI1 231630Z 16020G25KT 26/20 A299 RMK A01 T02600198  RH  069%=      5-min Rain = 0
KAI1 231631Z 17021KT 26/20 A299 RMK A01 T02590199  RH  070%=      5-min Rain = 0
KAI1 231632Z 17020KT 26/20 A299 RMK A01 T02580199  RH  070%=      5-min Rain = 0
KAI1 231633Z 16020KT 26/20 A299 RMK A01 T02590200  RH  070%=      5-min Rain = 0
KAI1 231634Z 16020KT 26/20 A299 RMK A01 T02600200  RH  069%=      5-min Rain = 0
KAI1 231635Z 16021KT 26/20 A299 RMK A01 T02590199  RH  069%=      5-min Rain = 0
KAI1 231636Z 16020KT 26/20 A299 RMK A01 T02570198  RH  070%=      5-min Rain = 0
KAI1 231637Z 16022KT 26/20 A299 RMK A01 T02560198  RH  071%=      5-min Rain = 0
KAI1 231638Z 16022KT 26/20 A299 RMK A01 T02560199  RH  071%=      5-min Rain = 0
KAI1 231639Z 16022KT 26/20 A299 RMK A01 T02560199  RH  071%=      5-min Rain = 0
KAI1 231640Z 16023KT 26/20 A299 RMK A01 T02550198  RH  071%=      5-min Rain = 0
KAI1 231641Z 16023KT 25/20 A299 RMK A01 T02540198  RH  071%=      5-min Rain = 0
KAI1 231642Z 16023KT 25/20 A299 RMK A01 T02540198  RH  071%=      5-min Rain = 0
KAI1 231643Z 16025KT 26/20 A299 RMK A01 T02550197  RH  070%=      5-min Rain = 0
KAI1 231644Z 16025KT 25/20 A299 RMK A01 T02540196  RH  070%=      5-min Rain = 0
KAI1 231645Z 16023KT 25/20 A299 RMK A01 T02530196  RH  071%=      5-min Rain = 0
KAI1 231646Z 17022KT 25/20 A299 RMK A01 T02520197  RH  072%=      5-min Rain = 0
KAI1 231647Z 16023KT 25/20 A299 RMK A01 T02520197  RH  071%=      5-min Rain = 0
KAI1 231648Z 17020KT 25/20 A2991 RMK A01 T02540198  RH  071%=      5-min Rain = 0
KAI1 231649Z 16022G27KT 26/20 A299 RMK A01 T02550198  RH  071%=      5-min Rain = 0
KAI1 231650Z 16020KT 26/20 A299 RMK A01 T02550198  RH  071%=      5-min Rain = 0
KAI1 231651Z 16020KT 26/20 A2991 RMK A01 T02550198  RH  071%=      5-min Rain = 0
KAI1 231652Z 17021KT 26/20 A299 RMK A01 T02550199  RH  071%=      5-min Rain = 0
KAI1 231653Z 17019KT 26/20 A2991 RMK A01 T02550199  RH  071%=      5-min Rain = 0
KAI1 231654Z 17020KT 26/20 A2991 RMK A01 T02560199  RH  071%=      5-min Rain = 0
KAI1 231655Z 17023KT 26/20 A2991 RMK A01 T02560198  RH  070%=      5-min Rain = 0
KAI1 231656Z 17022KT 26/20 A2991 RMK A01 T02560198  RH  070%=      5-min Rain = 0
KAI1 231657Z 17023KT 26/20 A2991 RMK A01 T02550198  RH  071%=      5-min Rain = 0
KAI1 231658Z 17022KT 26/20 A2991 RMK A01 T02560198  RH  071%=      5-min Rain = 0
KAI1 231659Z 16020KT 26/20 A2991 RMK A01 T02570198  RH  070%=      5-min Rain = 0
KAI1 231700Z 17020KT 26/20 A2991 RMK A01 T02570198  RH  070%=      5-min Rain = 0
KAI1 231701Z 17020G26KT 26/20 A2991 RMK A01 T02570199  RH  070%=      5-min Rain = 0
KAI1 231702Z 17023KT 26/20 A2991 RMK A01 T02570199  RH  070%=      5-min Rain = 0
KAI1 231703Z 18021KT 26/20 A2991 RMK A01 T02570199  RH  070%=      5-min Rain = 0
KAI1 231704Z 17017KT 26/20 A2991 RMK A01 T02600201  RH  070%=      5-min Rain = 0
KAI1 231705Z 16020KT 26/20 A2991 RMK A01 T02640200  RH  068%=      5-min Rain = 0
KAI1 231706Z 17021KT 27/20 A2991 RMK A01 T02650200  RH  067%=      5-min Rain = 0
KAI1 231707Z 18020KT 26/20 A2991 RMK A01 T02640200  RH  068%=      5-min Rain = 0
KAI1 231708Z 17021KT 26/20 A2991 RMK A01 T02630198  RH  067%=      5-min Rain = 0
KAI1 231709Z 18020KT 26/20 A2991 RMK A01 T02610198  RH  068%=      5-min Rain = 0
KAI1 231710Z 17023KT 26/20 A2991 RMK A01 T02590198  RH  069%=      5-min Rain = 0
KAI1 231711Z 17018KT 26/20 A2991 RMK A01 T02600198  RH  069%=      5-min Rain = 0
KAI1 231712Z 17017KT 26/20 A2991 RMK A01 T02620201  RH  069%=      5-min Rain = 0
KAI1 231713Z 17020KT 26/20 A2991 RMK A01 T02640200  RH  068%=      5-min Rain = 0
KAI1 231714Z 17023KT 26/20 A2991 RMK A01 T02640200  RH  068%=      5-min Rain = 0
KAI1 231715Z 17019KT 26/20 A2991 RMK A01 T02620198  RH  068%=      5-min Rain = 0
KAI1 231716Z 17022KT 26/20 A2991 RMK A01 T02600197  RH  068%=      5-min Rain = 0
KAI1 231717Z 16025KT 26/20 A2991 RMK A01 T02590198  RH  069%=      5-min Rain = 0
KAI1 231718Z 16021KT 26/20 A2991 RMK A01 T02590198  RH  069%=      5-min Rain = 0
KAI1 231719Z 16021KT 26/20 A2991 RMK A01 T02590199  RH  069%=      5-min Rain = 0
KAI1 231720Z 17024G29KT 26/20 A2991 RMK A01 T02610199  RH  068%=      5-min Rain = 0
KAI1 231721Z 17021KT 26/20 A2991 RMK A01 T02630200  RH  068%=      5-min Rain = 0
KAI1 231722Z 16022KT 27/20 A2991 RMK A01 T02650199  RH  067%=      5-min Rain = 0
KAI1 231723Z 17021KT 27/20 A2991 RMK A01 T02660200  RH  067%=      5-min Rain = 0
KAI1 231724Z 16023KT 27/20 A2991 RMK A01 T02660199  RH  067%=      5-min Rain = 0
KAI1 231725Z 16020KT 27/20 A2991 RMK A01 T02650198  RH  067%=      5-min Rain = 0
KAI1 231726Z 17023KT 26/20 A2991 RMK A01 T02640199  RH  067%=      5-min Rain = 0
KAI1 231727Z 16020G25KT 26/20 A2991 RMK A01 T02640199  RH  067%=      5-min Rain = 0
KAI1 231728Z 17025KT 27/20 A2991 RMK A01 T02650200  RH  067%=      5-min Rain = 0
KAI1 231729Z 17022KT 27/20 A2991 RMK A01 T02650200  RH  068%=      5-min Rain = 0
KAI1 231730Z 16022KT 27/20 A2991 RMK A01 T02650199  RH  067%=      5-min Rain = 0
KAI1 231731Z 17019KT 27/20 A2991 RMK A01 T02660198  RH  066%=      5-min Rain = 0
KAI1 231732Z 16020KT 27/20 A2991 RMK A01 T02680198  RH  066%=      5-min Rain = 0
KAI1 231733Z 16020G26KT 27/20 A2991 RMK A01 T02680200  RH  066%=      5-min Rain = 0
KAI1 231734Z 16022KT 27/20 A2991 RMK A01 T02690200  RH  066%=      5-min Rain = 0
KAI1 231735Z 18023KT 27/20 A299 RMK A01 T02710197  RH  064%=      5-min Rain = 0
KAI1 231736Z 17021G26KT 27/20 A2991 RMK A01 T02710198  RH  065%=      5-min Rain = 0
KAI1 231737Z 17024KT 27/20 A299 RMK A01 T02720199  RH  064%=      5-min Rain = 0
KAI1 231738Z 18022KT 27/20 A299 RMK A01 T02700199  RH  065%=      5-min Rain = 0
KAI1 231739Z 17021KT 27/20 A299 RMK A01 T02700198  RH  065%=      5-min Rain = 0
KAI1 231740Z 17022KT 27/20 A299 RMK A01 T02690200  RH  066%=      5-min Rain = 0
KAI1 231741Z 16025KT 27/20 A299 RMK A01 T02690198  RH  065%=      5-min Rain = 0
KAI1 231742Z 17023KT 27/20 A299 RMK A01 T02690197  RH  065%=      5-min Rain = 0
KAI1 231743Z 16025KT 27/20 A299 RMK A01 T02690197  RH  065%=      5-min Rain = 0
KAI1 231744Z 17022KT 27/20 A299 RMK A01 T02680197  RH  065%=      5-min Rain = 0
KAI1 231745Z 17024KT 27/20 A299 RMK A01 T02700198  RH  064%=      5-min Rain = 0
KAI1 231746Z 17024KT 27/20 A299 RMK A01 T02700198  RH  065%=      5-min Rain = 0
KAI1 231747Z 17024KT 27/20 A299 RMK A01 T02700200  RH  065%=      5-min Rain = 0
KAI1 231748Z 17024KT 27/20 A299 RMK A01 T02740201  RH  064%=      5-min Rain = 0
KAI1 231749Z 17023KT 28/20 A299 RMK A01 T02770200  RH  063%=      5-min Rain = 0
KAI1 231750Z 17026KT 28/20 A299 RMK A01 T02780200  RH  062%=      5-min Rain = 0
KAI1 231751Z 16023KT 28/20 A299 RMK A01 T02760200  RH  063%=      5-min Rain = 0
KAI1 231752Z 16026KT 28/20 A299 RMK A01 T02760199  RH  063%=      5-min Rain = 0
KAI1 231753Z 17025KT 28/20 A299 RMK A01 T02770199  RH  062%=      5-min Rain = 0
KAI1 231754Z 17025G31KT 28/20 A299 RMK A01 T02770200  RH  063%=      5-min Rain = 0
KAI1 231755Z 17025G30KT 28/20 A299 RMK A01 T02770199  RH  063%=      5-min Rain = 0
KAI1 231756Z 17021KT 28/20 A299 RMK A01 T02770200  RH  063%=      5-min Rain = 0
KAI1 231757Z 17024G29KT 28/20 A299 RMK A01 T02760200  RH  063%=      5-min Rain = 0
KAI1 231758Z 16025KT 28/20 A299 RMK A01 T02760198  RH  063%=      5-min Rain = 0
KAI1 231759Z 17022KT 28/20 A299 RMK A01 T02750198  RH  063%=      5-min Rain = 0
KAI1 231800Z 17025KT 28/20 A299 RMK A01 T02760199  RH  063%=      5-min Rain = 0
KAI1 231801Z 16025KT 28/20 A299 RMK A01 T02780198  RH  062%=      5-min Rain = 0
KAI1 231802Z 17028KT 28/20 A299 RMK A01 T02780197  RH  062%=      5-min Rain = 0
KAI1 231803Z 17023KT 28/20 A299 RMK A01 T02800198  RH  061%=      5-min Rain = 0
KAI1 231804Z 17020KT 28/20 A299 RMK A01 T02820198  RH  061%=      5-min Rain = 0
KAI1 231805Z 17024KT 28/20 A299 RMK A01 T02830199  RH  061%=      5-min Rain = 0
KAI1 231806Z 16026KT 28/20 A2989 RMK A01 T02830198  RH  060%=      5-min Rain = 0
KAI1 231807Z 18022G27KT 28/20 A2989 RMK A01 T02830196  RH  060%=      5-min Rain = 0
KAI1 231808Z 16021KT 28/20 A299 RMK A01 T02830198  RH  060%=      5-min Rain = 0
KAI1 231809Z 16021KT 28/20 A2989 RMK A01 T02840199  RH  060%=      5-min Rain = 0
KAI1 231810Z 15023G28KT 28/20 A2989 RMK A01 T02830199  RH  060%=      5-min Rain = 0
KAI1 231811Z 17024KT 29/20 A2989 RMK A01 T02850199  RH  060%=      5-min Rain = 0
KAI1 231812Z 17023G29KT 29/20 A2989 RMK A01 T02850198  RH  059%=      5-min Rain = 0
KAI1 231813Z 16020G27KT 28/20 A299 RMK A01 T02830198  RH  060%=      5-min Rain = 0
KAI1 231814Z 16027KT 28/20 A2989 RMK A01 T02810199  RH  061%=      5-min Rain = 0
KAI1 231815Z 16024KT 28/20 A2989 RMK A01 T02820199  RH  061%=      5-min Rain = 0
KAI1 231816Z 16023G28KT 28/20 A2989 RMK A01 T02830199  RH  060%=      5-min Rain = 0
KAI1 231817Z 16025KT 28/20 A2989 RMK A01 T02830199  RH  060%=      5-min Rain = 0
KAI1 231818Z 16025KT 28/20 A2989 RMK A01 T02840199  RH  060%=      5-min Rain = 0
KAI1 231819Z 16024KT 29/20 A2989 RMK A01 T02850199  RH  059%=      5-min Rain = 0
KAI1 231820Z 17022G27KT 28/20 A2989 RMK A01 T02840198  RH  060%=      5-min Rain = 0
KAI1 231821Z 17024KT 28/20 A2989 RMK A01 T02830197  RH  059%=      5-min Rain = 0
KAI1 231822Z 17022KT 28/20 A2989 RMK A01 T02810197  RH  060%=      5-min Rain = 0
KAI1 231823Z 18022KT 28/20 A2989 RMK A01 T02830196  RH  059%=      5-min Rain = 0
KAI1 231824Z 17021KT 28/19 A2989 RMK A01 T02820194  RH  059%=      5-min Rain = 0
KAI1 231825Z 17024KT 28/20 A2989 RMK A01 T02820195  RH  059%=      5-min Rain = 0
KAI1 231826Z 17020KT 29/20 A2989 RMK A01 T02850195  RH  058%=      5-min Rain = 0
KAI1 231827Z 17021KT 29/20 A2989 RMK A01 T02850196  RH  058%=      5-min Rain = 0
KAI1 231828Z 17019KT 29/20 A2989 RMK A01 T02860195  RH  058%=      5-min Rain = 0
KAI1 231829Z 17021G29KT 29/20 A2988 RMK A01 T02850195  RH  058%=      5-min Rain = 0
KAI1 231830Z 16025KT 29/19 A2988 RMK A01 T02860194  RH  058%=      5-min Rain = 0
KAI1 231831Z 16023KT 29/20 A2988 RMK A01 T02850195  RH  058%=      5-min Rain = 0
KAI1 231832Z 17022KT 29/20 A2988 RMK A01 T02850195  RH  058%=      5-min Rain = 0
KAI1 231833Z 17024KT 29/20 A2988 RMK A01 T02870195  RH  058%=      5-min Rain = 0
KAI1 231834Z 16025KT 29/20 A2988 RMK A01 T02870195  RH  057%=      5-min Rain = 0
KAI1 231835Z 16024KT 29/19 A2988 RMK A01 T02870194  RH  057%=      5-min Rain = 0
KAI1 231836Z 16026KT 29/20 A2988 RMK A01 T02860195  RH  058%=      5-min Rain = 0
KAI1 231837Z 16022G27KT 29/20 A2988 RMK A01 T02870196  RH  058%=      5-min Rain = 0
KAI1 231838Z 16022KT 29/20 A2988 RMK A01 T02910196  RH  056%=      5-min Rain = 0
KAI1 231839Z 17026KT 29/20 A2988 RMK A01 T02940195  RH  055%=      5-min Rain = 0
KAI1 231840Z 17024KT 29/20 A2988 RMK A01 T02940195  RH  055%=      5-min Rain = 0
KAI1 231841Z 18024G30KT 29/20 A2988 RMK A01 T02940195  RH  055%=      5-min Rain = 0
KAI1 231842Z 18026KT 30/20 A2988 RMK A01 T02960196  RH  055%=      5-min Rain = 0
KAI1 231843Z 18026KT 30/20 A2988 RMK A01 T02970195  RH  054%=      5-min Rain = 0
KAI1 231844Z 17023KT 29/19 A2988 RMK A01 T02930192  RH  054%=      5-min Rain = 0
KAI1 231845Z 17026KT 29/19 A2988 RMK A01 T02900193  RH  056%=      5-min Rain = 0
KAI1 231846Z 17027KT 29/19 A2988 RMK A01 T02910193  RH  056%=      5-min Rain = 0
KAI1 231847Z 17021G26KT 29/19 A2988 RMK A01 T02900194  RH  056%=      5-min Rain = 0
KAI1 231848Z 16022KT 29/20 A2988 RMK A01 T02880195  RH  057%=      5-min Rain = 0
KAI1 231849Z 16024KT 29/20 A2988 RMK A01 T02880195  RH  057%=      5-min Rain = 0
KAI1 231850Z 16025G30KT 29/19 A2988 RMK A01 T02900194  RH  056%=      5-min Rain = 0
KAI1 231851Z 16027KT 29/20 A2988 RMK A01 T02910195  RH  056%=      5-min Rain = 0
KAI1 231852Z 16026KT 29/19 A2988 RMK A01 T02900194  RH  056%=      5-min Rain = 0
KAI1 231853Z 16025G31KT 29/19 A2988 RMK A01 T02870192  RH  057%=      5-min Rain = 0
KAI1 231854Z 17026KT 29/19 A2988 RMK A01 T02870192  RH  057%=      5-min Rain = 0
KAI1 231855Z 17025KT 29/19 A2988 RMK A01 T02880193  RH  056%=      5-min Rain = 0
KAI1 231856Z 17025KT 29/19 A2988 RMK A01 T02890191  RH  055%=      5-min Rain = 0
KAI1 231857Z 17024G29KT 29/19 A2988 RMK A01 T02850192  RH  057%=      5-min Rain = 0
KAI1 231858Z 17021G28KT 29/19 A2988 RMK A01 T02870193  RH  057%=      5-min Rain = 0
KAI1 231859Z 17023KT 29/20 A2988 RMK A01 T02930195  RH  055%=      5-min Rain = 0
KAI1 231900Z 16024KT 30/19 A2988 RMK A01 T02950193  RH  054%=      5-min Rain = 0
KAI1 231901Z 16026KT 29/19 A2988 RMK A01 T02930191  RH  054%=      5-min Rain = 0
KAI1 231902Z 16022KT 29/19 A2988 RMK A01 T02900191  RH  055%=      5-min Rain = 0
KAI1 231903Z 17021KT 29/19 A2988 RMK A01 T02870191  RH  056%=      5-min Rain = 0
KAI1 231904Z 18024KT 29/19 A2988 RMK A01 T02870193  RH  057%=      5-min Rain = 0
KAI1 231905Z 17023KT 29/19 A2988 RMK A01 T02910194  RH  056%=      5-min Rain = 0
KAI1 231906Z 16026KT 29/19 A2988 RMK A01 T02930192  RH  055%=      5-min Rain = 0
KAI1 231907Z 16026KT 29/19 A2988 RMK A01 T02930192  RH  055%=      5-min Rain = 0
KAI1 231908Z 16026KT 29/19 A2988 RMK A01 T02930191  RH  054%=      5-min Rain = 0
KAI1 231909Z 17024KT 29/19 A2988 RMK A01 T02940191  RH  054%=      5-min Rain = 0
KAI1 231910Z 17021KT 30/19 A2988 RMK A01 T02950191  RH  054%=      5-min Rain = 0
KAI1 231911Z 17027KT 29/19 A2987 RMK A01 T02910190  RH  055%=      5-min Rain = 0
KAI1 231912Z 17025KT 29/19 A2987 RMK A01 T02870189  RH  055%=      5-min Rain = 0
KAI1 231913Z 16022G27KT 29/19 A2987 RMK A01 T02870189  RH  055%=      5-min Rain = 0
KAI1 231914Z 17026KT 29/19 A2987 RMK A01 T02890191  RH  055%=      5-min Rain = 0
KAI1 231915Z 17023KT 30/19 A2987 RMK A01 T02950192  RH  054%=      5-min Rain = 0
KAI1 231916Z 18024KT 30/19 A2987 RMK A01 T02990190  RH  052%=      5-min Rain = 0
KAI1 231917Z 18024KT 30/19 A2987 RMK A01 T02990189  RH  052%=      5-min Rain = 0
KAI1 231918Z 18021G26KT 29/19 A2987 RMK A01 T02940189  RH  053%=      5-min Rain = 0
KAI1 231919Z 17021KT 29/19 A2987 RMK A01 T02930189  RH  053%=      5-min Rain = 0
KAI1 231920Z 17024KT 30/19 A2987 RMK A01 T02960189  RH  052%=      5-min Rain = 0
KAI1 231921Z 17024KT 30/19 A2987 RMK A01 T02980186  RH  051%=      5-min Rain = 0
KAI1 231922Z 17023G29KT 30/19 A2987 RMK A01 T02980186  RH  051%=      5-min Rain = 0
KAI1 231923Z 17024G29KT 30/19 A2987 RMK A01 T02990188  RH  051%=      5-min Rain = 0
KAI1 231924Z 17024KT 30/19 A2987 RMK A01 T03010188  RH  051%=      5-min Rain = 0
KAI1 231925Z 17021G27KT 30/19 A2987 RMK A01 T02960187  RH  052%=      5-min Rain = 0
KAI1 231926Z 16022KT 30/19 A2987 RMK A01 T02960187  RH  052%=      5-min Rain = 0
KAI1 231927Z 16024KT 30/19 A2987 RMK A01 T02970187  RH  052%=      5-min Rain = 0
KAI1 231928Z 17027KT 30/19 A2987 RMK A01 T02990188  RH  051%=      5-min Rain = 0
KAI1 231929Z 17023KT 30/19 A2987 RMK A01 T02970187  RH  052%=      5-min Rain = 0
KAI1 231930Z 17022KT 30/19 A2987 RMK A01 T02960189  RH  053%=      5-min Rain = 0
KAI1 231931Z 16024KT 30/19 A2987 RMK A01 T02990187  RH  051%=      5-min Rain = 0
KAI1 231932Z 17025KT 30/19 A2987 RMK A01 T03000189  RH  052%=      5-min Rain = 0
KAI1 231933Z 18025KT 30/19 A2987 RMK A01 T02980189  RH  052%=      5-min Rain = 0
KAI1 231934Z 17023KT 30/19 A2987 RMK A01 T02970189  RH  052%=      5-min Rain = 0
KAI1 231935Z 17022KT 29/19 A2987 RMK A01 T02940189  RH  053%=      5-min Rain = 0
KAI1 231936Z 18024KT 29/19 A2987 RMK A01 T02910189  RH  054%=      5-min Rain = 0
KAI1 231937Z 18028KT 29/19 A2987 RMK A01 T02900186  RH  053%=      5-min Rain = 0
KAI1 231938Z 18027KT 29/19 A2987 RMK A01 T02920185  RH  052%=      5-min Rain = 0
KAI1 231939Z 17025KT 30/18 A2987 RMK A01 T02950184  RH  051%=      5-min Rain = 0
KAI1 231940Z 17025KT 30/19 A2987 RMK A01 T02970187  RH  052%=      5-min Rain = 0
KAI1 231941Z 17026KT 30/19 A2987 RMK A01 T02990187  RH  051%=      5-min Rain = 0
KAI1 231942Z 17023KT 30/19 A2987 RMK A01 T03010187  RH  051%=      5-min Rain = 0
KAI1 231943Z 17026KT 30/19 A2987 RMK A01 T03000187  RH  051%=      5-min Rain = 0
KAI1 231944Z 17022KT 30/19 A2987 RMK A01 T02990188  RH  051%=      5-min Rain = 0
KAI1 231945Z 17024KT 30/19 A2987 RMK A01 T02980189  RH  052%=      5-min Rain = 0
KAI1 231946Z 15029KT 30/19 A2986 RMK A01 T03000188  RH  051%=      5-min Rain = 0
KAI1 231947Z 16027G32KT 30/19 A2987 RMK A01 T03020187  RH  050%=      5-min Rain = 0
KAI1 231948Z 17024G29KT 30/19 A2987 RMK A01 T03020186  RH  050%=      5-min Rain = 0
KAI1 231949Z 17022G29KT 30/19 A2987 RMK A01 T02970185  RH  051%=      5-min Rain = 0
KAI1 231950Z 17024KT 29/19 A2987 RMK A01 T02920186  RH  053%=      5-min Rain = 0
KAI1 231951Z 17026KT 29/19 A2987 RMK A01 T02920187  RH  053%=      5-min Rain = 0
KAI1 231952Z 16026KT 29/19 A2987 RMK A01 T02930187  RH  053%=      5-min Rain = 0
KAI1 231953Z 17027KT 29/19 A2987 RMK A01 T02920187  RH  053%=      5-min Rain = 0
KAI1 231954Z 16025KT 29/19 A2987 RMK A01 T02900186  RH  054%=      5-min Rain = 0
KAI1 231955Z 17024G29KT 29/19 A2987 RMK A01 T02890187  RH  054%=      5-min Rain = 0
KAI1 231956Z 17024KT 29/19 A2987 RMK A01 T02900186  RH  054%=      5-min Rain = 0
KAI1 231957Z 16022KT 29/19 A2987 RMK A01 T02930187  RH  053%=      5-min Rain = 0
KAI1 231958Z 15022G29KT 29/19 A2987 RMK A01 T02940186  RH  052%=      5-min Rain = 0
KAI1 231959Z 16027KT 30/19 A2986 RMK A01 T02950186  RH  052%=      5-min Rain = 0
KAI1 232000Z 17024KT 30/19 A2987 RMK A01 T02970188  RH  052%=      5-min Rain = 0
KAI1 232001Z 17024KT 30/19 A2987 RMK A01 T03010186  RH  050%=      5-min Rain = 0
KAI1 232002Z 17025KT 30/19 A2987 RMK A01 T03030189  RH  051%=      5-min Rain = 0
KAI1 232003Z 17026G31KT 31/19 A2987 RMK A01 T03050189  RH  050%=      5-min Rain = 0
KAI1 232004Z 17024G30KT 30/19 A2987 RMK A01 T03030186  RH  050%=      5-min Rain = 0
KAI1 232005Z 17025G30KT 30/19 A2987 RMK A01 T03010187  RH  050%=      5-min Rain = 0
KAI1 232006Z 16023KT 30/19 A2987 RMK A01 T02990186  RH  051%=      5-min Rain = 0
KAI1 232007Z 16025KT 30/19 A2986 RMK A01 T02980186  RH  051%=      5-min Rain = 0
KAI1 232008Z 16025KT 30/19 A2987 RMK A01 T02970187  RH  052%=      5-min Rain = 0
KAI1 232009Z 16026KT 30/19 A2987 RMK A01 T02990188  RH  051%=      5-min Rain = 0
KAI1 232010Z 17023KT 30/19 A2987 RMK A01 T03010187  RH  051%=      5-min Rain = 0
KAI1 232011Z 17026KT 30/19 A2987 RMK A01 T03000188  RH  051%=      5-min Rain = 0
KAI1 232012Z 17025KT 30/19 A2987 RMK A01 T02970188  RH  052%=      5-min Rain = 0
KAI1 232013Z 17022KT 30/19 A2987 RMK A01 T02960189  RH  052%=      5-min Rain = 0
KAI1 232014Z 17024KT 30/19 A2987 RMK A01 T02980189  RH  052%=      5-min Rain = 0
KAI1 232015Z 18026KT 30/19 A2987 RMK A01 T03010188  RH  051%=      5-min Rain = 0
KAI1 232016Z 17028KT 30/19 A2987 RMK A01 T03030188  RH  050%=      5-min Rain = 0
KAI1 232017Z 16025G30KT 30/19 A2987 RMK A01 T03020188  RH  050%=      5-min Rain = 0
KAI1 232018Z 16023KT 30/19 A2986 RMK A01 T03000187  RH  051%=      5-min Rain = 0
KAI1 232019Z 15026KT 30/19 A2986 RMK A01 T02970187  RH  052%=      5-min Rain = 0
KAI1 232020Z 16022G27KT 30/19 A2986 RMK A01 T02970188  RH  052%=      5-min Rain = 0
KAI1 232021Z 17021KT 30/19 A2986 RMK A01 T03000189  RH  051%=      5-min Rain = 0
KAI1 232022Z 18025G31KT 30/19 A2986 RMK A01 T03040190  RH  050%=      5-min Rain = 0
KAI1 232023Z 17024G29KT 31/19 A2986 RMK A01 T03060188  RH  049%=      5-min Rain = 0
KAI1 232024Z 16025KT 30/19 A2986 RMK A01 T03020186  RH  050%=      5-min Rain = 0
KAI1 232025Z 15022KT 30/19 A2986 RMK A01 T02960185  RH  051%=      5-min Rain = 0
KAI1 232026Z 16025KT 30/19 A2986 RMK A01 T02950186  RH  052%=      5-min Rain = 0
KAI1 232027Z 16026KT 30/19 A2986 RMK A01 T02950186  RH  052%=      5-min Rain = 0
KAI1 232028Z 16023KT 30/19 A2986 RMK A01 T02950187  RH  052%=      5-min Rain = 0
KAI1 232029Z 15022KT 30/19 A2986 RMK A01 T02980187  RH  051%=      5-min Rain = 0
KAI1 232030Z 16024KT 30/19 A2986 RMK A01 T03000187  RH  051%=      5-min Rain = 0
KAI1 232031Z 16024KT 30/19 A2986 RMK A01 T03020188  RH  050%=      5-min Rain = 0
KAI1 232032Z 17026KT 30/19 A2986 RMK A01 T03030189  RH  050%=      5-min Rain = 0
KAI1 232033Z 16026KT 30/19 A2986 RMK A01 T03040189  RH  050%=      5-min Rain = 0
KAI1 232034Z 16023G28KT 30/19 A2986 RMK A01 T03020188  RH  051%=      5-min Rain = 0
KAI1 232035Z 16028G34KT 30/19 A2986 RMK A01 T03020189  RH  051%=      5-min Rain = 0
KAI1 232036Z 16028KT 30/19 A2986 RMK A01 T03040186  RH  049%=      5-min Rain = 0
KAI1 232037Z 16025KT 30/19 A2986 RMK A01 T03030186  RH  049%=      5-min Rain = 0
KAI1 232038Z 16024G31KT 30/19 A2986 RMK A01 T03040186  RH  049%=      5-min Rain = 0
KAI1 232039Z 16023G29KT 30/19 A2986 RMK A01 T03040186  RH  049%=      5-min Rain = 0
KAI1 232040Z 16025KT 31/19 A2986 RMK A01 T03060187  RH  049%=      5-min Rain = 0
KAI1 232041Z 16023G29KT 30/19 A2986 RMK A01 T03030187  RH  050%=      5-min Rain = 0
KAI1 232042Z 17028KT 30/19 A2986 RMK A01 T03030186  RH  050%=      5-min Rain = 0
KAI1 232043Z 17027G32KT 30/19 A2986 RMK A01 T03030186  RH  050%=      5-min Rain = 0
KAI1 232044Z 16027KT 30/19 A2986 RMK A01 T03000185  RH  050%=      5-min Rain = 0
KAI1 232045Z 16026KT 30/18 A2986 RMK A01 T02990184  RH  050%=      5-min Rain = 0
KAI1 232046Z 17027KT 30/18 A2986 RMK A01 T03010183  RH  049%=      5-min Rain = 0
KAI1 232047Z 17023KT 30/18 A2986 RMK A01 T03010182  RH  049%=      5-min Rain = 0
KAI1 232048Z 17022KT 30/18 A2986 RMK A01 T03000183  RH  049%=      5-min Rain = 0
KAI1 232049Z 16026KT 30/19 A2986 RMK A01 T03030187  RH  050%=      5-min Rain = 0
KAI1 232050Z 16024KT 30/19 A2986 RMK A01 T03040187  RH  050%=      5-min Rain = 0
KAI1 232051Z 17024KT 30/19 A2986 RMK A01 T03040185  RH  049%=      5-min Rain = 0
KAI1 232052Z 17024KT 30/18 A2986 RMK A01 T03030183  RH  049%=      5-min Rain = 0
KAI1 232053Z 16027KT 30/18 A2986 RMK A01 T03030182  RH  049%=      5-min Rain = 0
KAI1 232054Z 17026KT 30/18 A2986 RMK A01 T03040184  RH  049%=      5-min Rain = 0
KAI1 232055Z 17022G28KT 30/18 A2986 RMK A01 T03030184  RH  049%=      5-min Rain = 0
KAI1 232056Z 17028G33KT 30/18 A2986 RMK A01 T03020182  RH  049%=      5-min Rain = 0
KAI1 232057Z 16023G28KT 30/18 A2986 RMK A01 T02990182  RH  050%=      5-min Rain = 0
KAI1 232058Z 16028KT 30/18 A2986 RMK A01 T02990182  RH  049%=      5-min Rain = 0
KAI1 232059Z 16026KT 30/18 A2986 RMK A01 T03000182  RH  049%=      5-min Rain = 0
KAI1 232100Z 16025KT 30/18 A2986 RMK A01 T02980182  RH  050%=      5-min Rain = 0
KAI1 232101Z 15027KT 30/18 A2986 RMK A01 T02960181  RH  050%=      5-min Rain = 0
KAI1 232102Z 15027KT 30/18 A2985 RMK A01 T02950180  RH  050%=      5-min Rain = 0
KAI1 232103Z 16026KT 30/18 A2985 RMK A01 T02950180  RH  050%=      5-min Rain = 0
KAI1 232104Z 16026KT 30/18 A2985 RMK A01 T02950183  RH  051%=      5-min Rain = 0
KAI1 232105Z 16024KT 30/18 A2985 RMK A01 T02980183  RH  050%=      5-min Rain = 0
KAI1 232106Z 16026G32KT 30/18 A2985 RMK A01 T03010183  RH  049%=      5-min Rain = 0
KAI1 232107Z 16026G32KT 30/18 A2985 RMK A01 T03030182  RH  048%=      5-min Rain = 0
KAI1 232108Z 15026KT 30/18 A2985 RMK A01 T03010182  RH  049%=      5-min Rain = 0
KAI1 232109Z 16024KT 30/18 A2986 RMK A01 T03020182  RH  049%=      5-min Rain = 0
KAI1 232110Z 16020KT 30/18 A2986 RMK A01 T03030183  RH  049%=      5-min Rain = 0
KAI1 232111Z 16023KT 31/18 A2986 RMK A01 T03050183  RH  048%=      5-min Rain = 0
KAI1 232112Z 17026KT 31/18 A2985 RMK A01 T03070182  RH  047%=      5-min Rain = 0
KAI1 232113Z 17024KT 31/18 A2985 RMK A01 T03070183  RH  048%=      5-min Rain = 0
KAI1 232114Z 17027KT 31/18 A2985 RMK A01 T03050184  RH  048%=      5-min Rain = 0
KAI1 232115Z 16024G29KT 31/18 A2985 RMK A01 T03050184  RH  048%=      5-min Rain = 0
KAI1 232116Z 16025KT 31/18 A2985 RMK A01 T03070183  RH  048%=      5-min Rain = 0
KAI1 232117Z 16024KT 31/18 A2985 RMK A01 T03070184  RH  048%=      5-min Rain = 0
KAI1 232118Z 16025KT 31/18 A2985 RMK A01 T03070183  RH  047%=      5-min Rain = 0
KAI1 232119Z 17026KT 31/18 A2985 RMK A01 T03080183  RH  047%=      5-min Rain = 0
KAI1 232120Z 17021G27KT 31/18 A2985 RMK A01 T03050184  RH  048%=      5-min Rain = 0
KAI1 232121Z 17025KT 31/18 A2985 RMK A01 T03050182  RH  048%=      5-min Rain = 0
KAI1 232122Z 17025KT 31/18 A2985 RMK A01 T03060182  RH  048%=      5-min Rain = 0
KAI1 232123Z 17024G29KT 31/18 A2985 RMK A01 T03060183  RH  048%=      5-min Rain = 0
KAI1 232124Z 17026G32KT 31/18 A2985 RMK A01 T03070183  RH  048%=      5-min Rain = 0
KAI1 232125Z 17022KT 31/18 A2985 RMK A01 T03060183  RH  048%=      5-min Rain = 0
KAI1 232126Z 17025G35KT 31/18 A2985 RMK A01 T03050183  RH  048%=      5-min Rain = 0
KAI1 232127Z 16029KT 31/18 A2985 RMK A01 T03050183  RH  048%=      5-min Rain = 0
KAI1 232128Z 17026G31KT 30/18 A2985 RMK A01 T03020183  RH  049%=      5-min Rain = 0
KAI1 232129Z 16027KT 30/18 A2985 RMK A01 T03000183  RH  049%=      5-min Rain = 0
KAI1 232130Z 16028KT 30/18 A2985 RMK A01 T03010181  RH  049%=      5-min Rain = 0
KAI1 232131Z 16026KT 30/18 A2985 RMK A01 T03000182  RH  049%=      5-min Rain = 0
KAI1 232132Z 17025KT 30/18 A2984 RMK A01 T02990181  RH  049%=      5-min Rain = 0
KAI1 232133Z 16028KT 30/18 A2984 RMK A01 T03000183  RH  049%=      5-min Rain = 0
KAI1 232134Z 16028KT 30/18 A2985 RMK A01 T03020182  RH  049%=      5-min Rain = 0
KAI1 232135Z 17026KT 30/18 A2984 RMK A01 T03010182  RH  049%=      5-min Rain = 0
KAI1 232136Z 16024KT 30/18 A2984 RMK A01 T03000182  RH  049%=      5-min Rain = 0
KAI1 232137Z 17026KT 30/18 A2984 RMK A01 T03030182  RH  049%=      5-min Rain = 0
KAI1 232138Z 16022KT 30/18 A2985 RMK A01 T03010180  RH  048%=      5-min Rain = 0
KAI1 232139Z 15026G31KT 30/18 A2984 RMK A01 T03020184  RH  049%=      5-min Rain = 0
KAI1 232140Z 15024KT 30/19 A2985 RMK A01 T03030186  RH  049%=      5-min Rain = 0
KAI1 232141Z 16028KT 31/19 A2985 RMK A01 T03050185  RH  049%=      5-min Rain = 0
KAI1 232142Z 16026G32KT 31/18 A2984 RMK A01 T03050184  RH  049%=      5-min Rain = 0
KAI1 232143Z 15026KT 30/19 A2984 RMK A01 T03040186  RH  049%=      5-min Rain = 0
KAI1 232144Z 15029G36KT 30/19 A2984 RMK A01 T03040185  RH  049%=      5-min Rain = 0
KAI1 232145Z 16029G34KT 30/18 A2984 RMK A01 T03040184  RH  049%=      5-min Rain = 0
KAI1 232146Z 15025KT 30/18 A2984 RMK A01 T03030183  RH  049%=      5-min Rain = 0
KAI1 232147Z 15031KT 30/18 A2984 RMK A01 T03040183  RH  048%=      5-min Rain = 0
KAI1 232148Z 16027KT 30/18 A2984 RMK A01 T03040183  RH  048%=      5-min Rain = 0
KAI1 232149Z 17026KT 31/18 A2984 RMK A01 T03050181  RH  047%=      5-min Rain = 0
KAI1 232150Z 16027KT 30/18 A2984 RMK A01 T03040182  RH  048%=      5-min Rain = 0
KAI1 232151Z 17026G31KT 30/18 A2984 RMK A01 T03030181  RH  048%=      5-min Rain = 0
KAI1 232152Z 16027KT 30/18 A2984 RMK A01 T03010183  RH  049%=      5-min Rain = 0
KAI1 232153Z 18028KT 30/18 A2984 RMK A01 T02990182  RH  050%=      5-min Rain = 0
KAI1 232154Z 17028KT 30/18 A2984 RMK A01 T02980182  RH  050%=      5-min Rain = 0
KAI1 232155Z 17028KT 30/18 A2984 RMK A01 T03000182  RH  049%=      5-min Rain = 0
KAI1 232156Z 17030KT 30/18 A2984 RMK A01 T03000180  RH  049%=      5-min Rain = 0
KAI1 232157Z 16028KT 30/18 A2984 RMK A01 T03000180  RH  049%=      5-min Rain = 0
KAI1 232158Z 16027KT 30/18 A2984 RMK A01 T03000180  RH  049%=      5-min Rain = 0
KAI1 232159Z 16025KT 30/18 A2984 RMK A01 T03030182  RH  048%=      5-min Rain = 0
KAI1 232200Z 17024KT 31/18 A2984 RMK A01 T03050182  RH  048%=      5-min Rain = 0
KAI1 232201Z 16027KT 31/18 A2984 RMK A01 T03050181  RH  048%=      5-min Rain = 0
KAI1 232202Z 16028KT 31/18 A2983 RMK A01 T03050180  RH  047%=      5-min Rain = 0
KAI1 232203Z 17029G34KT 30/18 A2984 RMK A01 T03040181  RH  048%=      5-min Rain = 0
KAI1 232204Z 16026KT 30/18 A2984 RMK A01 T03000177  RH  048%=      5-min Rain = 0
KAI1 232205Z 16026KT 30/18 A2984 RMK A01 T02970178  RH  049%=      5-min Rain = 0
KAI1 232206Z 17027G32KT 30/18 A2984 RMK A01 T02960178  RH  049%=      5-min Rain = 0
KAI1 232207Z 17026KT 29/18 A2984 RMK A01 T02940177  RH  049%=      5-min Rain = 0
KAI1 232208Z 17026KT 29/18 A2984 RMK A01 T02920178  RH  050%=      5-min Rain = 0
KAI1 232209Z 17027G33KT 29/18 A2984 RMK A01 T02910178  RH  051%=      5-min Rain = 0
KAI1 232210Z 17027KT 29/18 A2984 RMK A01 T02890177  RH  051%=      5-min Rain = 0
KAI1 232211Z 17028KT 29/18 A2983 RMK A01 T02870179  RH  052%=      5-min Rain = 0
KAI1 232212Z 16024KT 29/18 A2984 RMK A01 T02850180  RH  053%=      5-min Rain = 0
KAI1 232213Z 16026KT 29/18 A2983 RMK A01 T02850180  RH  053%=      5-min Rain = 0
KAI1 232214Z 16029KT 29/18 A2984 RMK A01 T02850181  RH  053%=      5-min Rain = 0
KAI1 232215Z 16026KT 29/18 A2984 RMK A01 T02850182  RH  054%=      5-min Rain = 0
KAI1 232216Z 16024KT 28/18 A2984 RMK A01 T02840182  RH  054%=      5-min Rain = 0
KAI1 232217Z 16026G32KT 28/18 A2984 RMK A01 T02840182  RH  054%=      5-min Rain = 0
KAI1 232218Z 16026KT 28/18 A2984 RMK A01 T02840181  RH  054%=      5-min Rain = 0
KAI1 232219Z 16025KT 28/18 A2984 RMK A01 T02830181  RH  054%=      5-min Rain = 0
KAI1 232220Z 16023KT 28/18 A2984 RMK A01 T02830182  RH  054%=      5-min Rain = 0
KAI1 232221Z 17027G32KT 28/18 A2984 RMK A01 T02840183  RH  054%=      5-min Rain = 0
KAI1 232222Z 16026KT 28/18 A2984 RMK A01 T02830183  RH  055%=      5-min Rain = 0
KAI1 232223Z 16025KT 28/18 A2984 RMK A01 T02810183  RH  055%=      5-min Rain = 0
KAI1 232224Z 16022KT 28/18 A2984 RMK A01 T02810183  RH  055%=      5-min Rain = 0
KAI1 232225Z 16026G32KT 28/18 A2984 RMK A01 T02800183  RH  056%=      5-min Rain = 0
KAI1 232226Z 16024KT 28/18 A2984 RMK A01 T02800183  RH  056%=      5-min Rain = 0
KAI1 232227Z 16021G26KT 28/18 A2984 RMK A01 T02790183  RH  056%=      5-min Rain = 0
KAI1 232228Z 16027KT 28/18 A2984 RMK A01 T02800184  RH  056%=      5-min Rain = 0
KAI1 232229Z 16026KT 28/18 A2984 RMK A01 T02800184  RH  056%=      5-min Rain = 0
KAI1 232230Z 15029KT 28/18 A2983 RMK A01 T02790184  RH  056%=      5-min Rain = 0
KAI1 232231Z 16027KT 28/19 A2983 RMK A01 T02780185  RH  057%=      5-min Rain = 0
KAI1 232232Z 16027KT 28/19 A2983 RMK A01 T02770185  RH  057%=      5-min Rain = 0
KAI1 232233Z 16027G33KT 28/18 A2983 RMK A01 T02760184  RH  057%=      5-min Rain = 0
KAI1 232234Z 15028KT 28/19 A2983 RMK A01 T02760185  RH  058%=      5-min Rain = 0
KAI1 232235Z 15027KT 28/19 A2983 RMK A01 T02760185  RH  058%=      5-min Rain = 0
KAI1 232236Z 15024G29KT 28/19 A2983 RMK A01 T02750185  RH  058%=      5-min Rain = 0
KAI1 232237Z 15026G31KT 28/19 A2983 RMK A01 T02750185  RH  058%=      5-min Rain = 0
KAI1 232238Z 15028G33KT 28/19 A2983 RMK A01 T02750185  RH  058%=      5-min Rain = 0
KAI1 232239Z 15026G31KT 28/18 A2983 RMK A01 T02750184  RH  058%=      5-min Rain = 0
KAI1 232240Z 16026KT 28/19 A2983 RMK A01 T02750185  RH  058%=      5-min Rain = 0
KAI1 232241Z 15029KT 27/19 A2983 RMK A01 T02740185  RH  058%=      5-min Rain = 0
KAI1 232242Z 15028KT 27/19 A2983 RMK A01 T02730185  RH  058%=      5-min Rain = 0
KAI1 232243Z 16027KT 27/19 A2983 RMK A01 T02730185  RH  059%=      5-min Rain = 0
KAI1 232244Z 16027KT 27/19 A2983 RMK A01 T02720185  RH  059%=      5-min Rain = 0
KAI1 232245Z 16026KT 27/19 A2984 RMK A01 T02720185  RH  059%=      5-min Rain = 0
KAI1 232246Z 15025KT 27/19 A2984 RMK A01 T02710185  RH  059%=      5-min Rain = 0
KAI1 232247Z 15028KT 27/18 A2984 RMK A01 T02710184  RH  059%=      5-min Rain = 0
KAI1 232248Z 16027KT 27/18 A2984 RMK A01 T02710184  RH  059%=      5-min Rain = 0
KAI1 232249Z 16024G29KT 27/18 A2984 RMK A01 T02700183  RH  059%=      5-min Rain = 0
KAI1 232250Z 16026KT 27/18 A2984 RMK A01 T02710184  RH  059%=      5-min Rain = 0
KAI1 232251Z 16024KT 27/18 A2984 RMK A01 T02700184  RH  059%=      5-min Rain = 0
KAI1 232252Z 16028KT 27/18 A2984 RMK A01 T02700184  RH  059%=      5-min Rain = 0
KAI1 232253Z 16025G30KT 27/18 A2984 RMK A01 T02700184  RH  060%=      5-min Rain = 0
KAI1 232254Z 16026KT 27/18 A2984 RMK A01 T02690184  RH  060%=      5-min Rain = 0
KAI1 232255Z 16023KT 27/19 A2984 RMK A01 T02690185  RH  060%=      5-min Rain = 0
KAI1 232256Z 16024KT 27/19 A2984 RMK A01 T02690185  RH  060%=      5-min Rain = 0
KAI1 232257Z 15025KT 27/19 A2984 RMK A01 T02680185  RH  060%=      5-min Rain = 0
KAI1 232258Z 15027KT 27/19 A2984 RMK A01 T02680186  RH  061%=      5-min Rain = 0
KAI1 232259Z 15027KT 27/19 A2984 RMK A01 T02670186  RH  061%=      5-min Rain = 0
KAI1 232300Z 15025KT 27/19 A2984 RMK A01 T02670187  RH  061%=      5-min Rain = 0
KAI1 232301Z 15024G29KT 27/19 A2984 RMK A01 T02660187  RH  062%=      5-min Rain = 0
KAI1 232302Z 15020KT 27/19 A2984 RMK A01 T02660187  RH  062%=      5-min Rain = 0
KAI1 232303Z 15021KT 27/19 A2984 RMK A01 T02650187  RH  062%=      5-min Rain = 0
KAI1 232304Z 15020G25KT 27/19 A2984 RMK A01 T02650187  RH  062%=      5-min Rain = 0
KAI1 232305Z 15020G25KT 27/19 A2984 RMK A01 T02650187  RH  062%=      5-min Rain = 0
KAI1 232306Z 15024KT 27/19 A2984 RMK A01 T02650188  RH  062%=      5-min Rain = 0
KAI1 232307Z 15026KT 27/19 A2984 RMK A01 T02650188  RH  063%=      5-min Rain = 0
KAI1 232308Z 15024KT 26/19 A2984 RMK A01 T02640187  RH  063%=      5-min Rain = 0
KAI1 232309Z 16025KT 26/19 A2984 RMK A01 T02640188  RH  063%=      5-min Rain = 0
KAI1 232310Z 15024KT 26/19 A2984 RMK A01 T02640188  RH  063%=      5-min Rain = 0
KAI1 232311Z 15025KT 26/19 A2984 RMK A01 T02640188  RH  063%=      5-min Rain = 0
KAI1 232312Z 15026G31KT 26/19 A2984 RMK A01 T02630187  RH  063%=      5-min Rain = 0
KAI1 232313Z 15029KT 26/19 A2984 RMK A01 T02630187  RH  063%=      5-min Rain = 0
KAI1 232314Z 16028G33KT 26/19 A2984 RMK A01 T02630187  RH  063%=      5-min Rain = 0
KAI1 232315Z 15025KT 26/19 A2984 RMK A01 T02620187  RH  063%=      5-min Rain = 0
KAI1 232316Z 15026KT 26/19 A2984 RMK A01 T02620187  RH  063%=      5-min Rain = 0
KAI1 232317Z 15022KT 26/19 A2984 RMK A01 T02620188  RH  064%=      5-min Rain = 0
KAI1 232318Z 15023KT 26/19 A2984 RMK A01 T02620188  RH  064%=      5-min Rain = 0
KAI1 232319Z 15021KT 26/19 A2984 RMK A01 T02610189  RH  064%=      5-min Rain = 0
KAI1 232320Z 15020G26KT 26/19 A2984 RMK A01 T02610189  RH  065%=      5-min Rain = 0
KAI1 232321Z 15018KT 26/19 A2984 RMK A01 T02610189  RH  065%=      5-min Rain = 0
KAI1 232322Z 15023KT 26/19 A2984 RMK A01 T02600189  RH  065%=      5-min Rain = 0
KAI1 232323Z 15024G29KT 26/19 A2984 RMK A01 T02600189  RH  065%=      5-min Rain = 0
KAI1 232324Z 15023KT 26/19 A2984 RMK A01 T02600189  RH  065%=      5-min Rain = 0
KAI1 232325Z 15024G29KT 26/19 A2984 RMK A01 T02600189  RH  065%=      5-min Rain = 0
KAI1 232326Z 15025KT 26/19 A2984 RMK A01 T02600189  RH  065%=      5-min Rain = 0
KAI1 232327Z 15025KT 26/19 A2984 RMK A01 T02590189  RH  065%=      5-min Rain = 0
KAI1 232328Z 15021KT 26/19 A2984 RMK A01 T02590189  RH  065%=      5-min Rain = 0
KAI1 232329Z 15022KT 26/19 A2984 RMK A01 T02590189  RH  065%=      5-min Rain = 0
KAI1 232330Z 15026KT 26/19 A2984 RMK A01 T02590189  RH  065%=      5-min Rain = 0
KAI1 232331Z 15024KT 26/19 A2984 RMK A01 T02590190  RH  066%=      5-min Rain = 0
KAI1 232332Z 15022KT 26/19 A2984 RMK A01 T02580190  RH  066%=      5-min Rain = 0
KAI1 232333Z 15023KT 26/19 A2984 RMK A01 T02580190  RH  066%=      5-min Rain = 0
KAI1 232334Z 15024KT 26/19 A2984 RMK A01 T02580190  RH  066%=      5-min Rain = 0
KAI1 232335Z 15022G29KT 26/19 A2984 RMK A01 T02580190  RH  066%=      5-min Rain = 0
KAI1 232336Z 15027KT 26/19 A2984 RMK A01 T02570190  RH  066%=      5-min Rain = 0
KAI1 232337Z 15022G27KT 26/19 A2984 RMK A01 T02570190  RH  066%=      5-min Rain = 0
KAI1 232338Z 15022KT 26/19 A2984 RMK A01 T02570190  RH  066%=      5-min Rain = 0
KAI1 232339Z 15023KT 26/19 A2984 RMK A01 T02570190  RH  066%=      5-min Rain = 0
KAI1 232340Z 15021KT 26/19 A2984 RMK A01 T02570190  RH  066%=      5-min Rain = 0
KAI1 232341Z 16021KT 26/19 A2984 RMK A01 T02570189  RH  066%=      5-min Rain = 0
KAI1 232342Z 15022G27KT 26/19 A2984 RMK A01 T02570190  RH  066%=      5-min Rain = 0
KAI1 232343Z 15023KT 26/19 A2984 RMK A01 T02570189  RH  066%=      5-min Rain = 0
KAI1 232344Z 16019KT 26/19 A2985 RMK A01 T02570188  RH  066%=      5-min Rain = 0
KAI1 232345Z 16021KT 26/19 A2985 RMK A01 T02570189  RH  066%=      5-min Rain = 0
KAI1 232346Z 16023KT 26/19 A2985 RMK A01 T02570189  RH  066%=      5-min Rain = 0
KAI1 232347Z 16023KT 26/19 A2985 RMK A01 T02570189  RH  066%=      5-min Rain = 0
KAI1 232348Z 16020KT 26/19 A2985 RMK A01 T02570189  RH  066%=      5-min Rain = 0
KAI1 232349Z 16020KT 26/19 A2985 RMK A01 T02570189  RH  066%=      5-min Rain = 0
KAI1 232350Z 16020KT 26/19 A2985 RMK A01 T02570189  RH  066%=      5-min Rain = 0
KAI1 232351Z 16020KT 26/19 A2985 RMK A01 T02560189  RH  066%=      5-min Rain = 0
KAI1 232352Z 16021KT 26/19 A2985 RMK A01 T02560189  RH  066%=      5-min Rain = 0
KAI1 232353Z 15020KT 26/19 A2985 RMK A01 T02560189  RH  066%=      5-min Rain = 0
KAI1 232354Z 15021G30KT 26/19 A2985 RMK A01 T02560189  RH  066%=      5-min Rain = 0
KAI1 232355Z 15024KT 26/19 A2985 RMK A01 T02560189  RH  066%=      5-min Rain = 0
KAI1 232356Z 16020KT 26/19 A2985 RMK A01 T02560188  RH  066%=      5-min Rain = 0
KAI1 232357Z 16023KT 26/19 A2985 RMK A01 T02560188  RH  066%=      5-min Rain = 0
KAI1 232358Z 16023KT 26/19 A2985 RMK A01 T02560187  RH  066%=      5-min Rain = 0
KAI1 232359Z 16022KT 26/19 A2984 RMK A01 T02560187  RH  066%=      5-min Rain = 0
KAI1 240000Z 16021KT 26/19 A2984 RMK A01 T02560187  RH  066%=      5-min Rain = 0
KAI1 240001Z 15021KT 26/19 A2984 RMK A01 T02560187  RH  065%=      5-min Rain = 0
KAI1 240002Z 15021KT 26/19 A2984 RMK A01 T02560187  RH  065%=      5-min Rain = 0
KAI1 240003Z 15018KT 26/19 A2984 RMK A01 T02560187  RH  065%=      5-min Rain = 0
KAI1 240004Z 15018KT 26/19 A2985 RMK A01 T02560187  RH  066%=      5-min Rain = 0
KAI1 240005Z 15020KT 26/19 A2985 RMK A01 T02560187  RH  066%=      5-min Rain = 0
KAI1 240006Z 15019KT 26/19 A2985 RMK A01 T02550187  RH  066%=      5-min Rain = 0
KAI1 240007Z 15019KT 26/19 A2984 RMK A01 T02560187  RH  066%=      5-min Rain = 0
KAI1 240008Z 15019KT 26/19 A2984 RMK A01 T02550187  RH  066%=      5-min Rain = 0
KAI1 240009Z 15019KT 26/19 A2984 RMK A01 T02550188  RH  066%=      5-min Rain = 0
KAI1 240010Z 15021KT 26/19 A2983 RMK A01 T02550188  RH  067%=      5-min Rain = 0
KAI1 240011Z 15020G25KT 25/19 A2983 RMK A01 T02540188  RH  067%=      5-min Rain = 0
KAI1 240012Z 15024KT 25/19 A2983 RMK A01 T02540189  RH  067%=      5-min Rain = 0
KAI1 240013Z 15023KT 26/19 A2983 RMK A01 T02550189  RH  067%=      5-min Rain = 0
KAI1 240014Z 15023KT 26/19 A2983 RMK A01 T02550189  RH  067%=      5-min Rain = 0
KAI1 240015Z 16023KT 25/19 A2983 RMK A01 T02540188  RH  067%=      5-min Rain = 0
KAI1 240016Z 15025KT 25/19 A2983 RMK A01 T02540188  RH  067%=      5-min Rain = 0
KAI1 240017Z 15023G30KT 25/19 A2983 RMK A01 T02540188  RH  067%=      5-min Rain = 0
KAI1 240018Z 15025KT 25/19 A2983 RMK A01 T02540188  RH  067%=      5-min Rain = 0
KAI1 240019Z 15022KT 25/19 A2984 RMK A01 T02540188  RH  067%=      5-min Rain = 0
KAI1 240020Z 15023G29KT 25/19 A2983 RMK A01 T02540187  RH  067%=      5-min Rain = 0
KAI1 240021Z 16023KT 25/19 A2983 RMK A01 T02530188  RH  067%=      5-min Rain = 0
KAI1 240022Z 16024KT 25/19 A2983 RMK A01 T02530188  RH  067%=      5-min Rain = 0
KAI1 240023Z 15025KT 25/19 A2983 RMK A01 T02530187  RH  067%=      5-min Rain = 0
KAI1 240024Z 15025KT 25/19 A2983 RMK A01 T02530187  RH  067%=      5-min Rain = 0
KAI1 240025Z 15022KT 25/19 A2984 RMK A01 T02530187  RH  067%=      5-min Rain = 0
KAI1 240026Z 15023G28KT 25/19 A2984 RMK A01 T02530187  RH  067%=      5-min Rain = 0
KAI1 240027Z 16024KT 25/19 A2984 RMK A01 T02530187  RH  067%=      5-min Rain = 0
KAI1 240028Z 16020KT 25/19 A2984 RMK A01 T02530188  RH  067%=      5-min Rain = 0
KAI1 240029Z 16020KT 25/19 A2985 RMK A01 T02530188  RH  067%=      5-min Rain = 0
KAI1 240030Z 16019KT 25/19 A2984 RMK A01 T02520187  RH  067%=      5-min Rain = 0
KAI1 240031Z 16020KT 25/19 A2984 RMK A01 T02520187  RH  067%=      5-min Rain = 0
KAI1 240032Z 15018KT 25/19 A2984 RMK A01 T02520188  RH  067%=      5-min Rain = 0
KAI1 240033Z 15018KT 25/19 A2984 RMK A01 T02520187  RH  067%=      5-min Rain = 0
KAI1 240034Z 15021KT 25/19 A2984 RMK A01 T02510187  RH  068%=      5-min Rain = 0
KAI1 240035Z 15019G26KT 25/19 A2984 RMK A01 T02510187  RH  068%=      5-min Rain = 0
KAI1 240036Z 15020KT 25/19 A2984 RMK A01 T02510187  RH  068%=      5-min Rain = 0
KAI1 240037Z 15020KT 25/19 A2984 RMK A01 T02510187  RH  068%=      5-min Rain = 0
KAI1 240038Z 14020KT 25/19 A2983 RMK A01 T02510188  RH  068%=      5-min Rain = 0
KAI1 240039Z 14019KT 25/19 A2983 RMK A01 T02510188  RH  068%=      5-min Rain = 0
KAI1 240040Z 14017KT 25/19 A2983 RMK A01 T02510188  RH  068%=      5-min Rain = 0
KAI1 240041Z 14016KT 25/19 A2983 RMK A01 T02510187  RH  068%=      5-min Rain = 0
KAI1 240042Z 14020KT 25/19 A2983 RMK A01 T02510188  RH  068%=      5-min Rain = 0
KAI1 240043Z 15020KT 25/19 A2983 RMK A01 T02510188  RH  068%=      5-min Rain = 0
KAI1 240044Z 15020KT 25/19 A2983 RMK A01 T02500188  RH  068%=      5-min Rain = 0
KAI1 240045Z 15020G25KT 25/19 A2983 RMK A01 T02500188  RH  068%=      5-min Rain = 0
KAI1 240046Z 16018KT 25/19 A2983 RMK A01 T02500188  RH  068%=      5-min Rain = 0
KAI1 240047Z 15018KT 25/19 A2983 RMK A01 T02500188  RH  068%=      5-min Rain = 0
KAI1 240048Z 16018KT 25/19 A2983 RMK A01 T02500188  RH  068%=      5-min Rain = 0
KAI1 240049Z 15022KT 25/19 A2983 RMK A01 T02500187  RH  068%=      5-min Rain = 0
KAI1 240050Z 15021KT 25/19 A2983 RMK A01 T02500188  RH  068%=      5-min Rain = 0
KAI1 240051Z 15021G26KT 25/19 A2983 RMK A01 T02500187  RH  068%=      5-min Rain = 0
KAI1 240052Z 15022G27KT 25/19 A2983 RMK A01 T02500187  RH  068%=      5-min Rain = 0
KAI1 240053Z 15021KT 25/19 A2983 RMK A01 T02500187  RH  068%=      5-min Rain = 0
KAI1 240054Z 15020KT 25/19 A2983 RMK A01 T02500187  RH  068%=      5-min Rain = 0
KAI1 240055Z 15021G27KT 25/19 A2983 RMK A01 T02500187  RH  068%=      5-min Rain = 0
KAI1 240056Z 15024KT 25/19 A2982 RMK A01 T02500187  RH  068%=      5-min Rain = 0
KAI1 240057Z 15023KT 25/19 A2982 RMK A01 T02500187  RH  068%=      5-min Rain = 0
KAI1 240058Z 15024KT 25/19 A2983 RMK A01 T02500187  RH  068%=      5-min Rain = 0
KAI1 240059Z 15026KT 25/19 A2983 RMK A01 T02500187  RH  068%=      5-min Rain = 0
KAI1 240100Z 15024KT 25/19 A2983 RMK A01 T02500187  RH  068%=      5-min Rain = 0
KAI1 240101Z 16023KT 25/19 A2984 RMK A01 T02500186  RH  068%=      5-min Rain = 0
KAI1 240102Z 16025G30KT 25/19 A2984 RMK A01 T02500187  RH  068%=      5-min Rain = 0
KAI1 240103Z 16026KT 25/19 A2984 RMK A01 T02500187  RH  068%=      5-min Rain = 0
KAI1 240104Z 16023G28KT 25/19 A2984 RMK A01 T02500187  RH  068%=      5-min Rain = 0
KAI1 240105Z 15020KT 25/19 A2984 RMK A01 T02500187  RH  068%=      5-min Rain = 0
KAI1 240106Z 16020KT 25/19 A2983 RMK A01 T02500187  RH  068%=      5-min Rain = 0
KAI1 240107Z 16023KT 25/19 A2984 RMK A01 T02490187  RH  068%=      5-min Rain = 0
KAI1 240108Z 16022G27KT 25/19 A2984 RMK A01 T02490187  RH  068%=      5-min Rain = 0
KAI1 240109Z 16022KT 25/19 A2984 RMK A01 T02490186  RH  068%=      5-min Rain = 0
KAI1 240110Z 15021KT 25/19 A2984 RMK A01 T02490186  RH  068%=      5-min Rain = 0
KAI1 240111Z 15021KT 25/19 A2984 RMK A01 T02490186  RH  068%=      5-min Rain = 0
KAI1 240112Z 15021KT 25/19 A2984 RMK A01 T02490187  RH  068%=      5-min Rain = 0
KAI1 240113Z 15020KT 25/19 A2985 RMK A01 T02490187  RH  068%=      5-min Rain = 0
KAI1 240114Z 15018G24KT 25/19 A2985 RMK A01 T02490186  RH  068%=      5-min Rain = 0
KAI1 240115Z 15022G27KT 25/19 A2985 RMK A01 T02490187  RH  068%=      5-min Rain = 0
KAI1 240116Z 15024KT 25/19 A2984 RMK A01 T02490186  RH  068%=      5-min Rain = 0
KAI1 240117Z 15022G27KT 25/19 A2984 RMK A01 T02480186  RH  068%=      5-min Rain = 0
KAI1 240118Z 15023KT 25/19 A2984 RMK A01 T02490186  RH  068%=      5-min Rain = 0
KAI1 240119Z 15022KT 25/19 A2984 RMK A01 T02490186  RH  068%=      5-min Rain = 0
KAI1 240120Z 15020G27KT 25/19 A2984 RMK A01 T02480186  RH  068%=      5-min Rain = 0
KAI1 240121Z 15022G27KT 25/19 A2984 RMK A01 T02490186  RH  068%=      5-min Rain = 0
KAI1 240122Z 15020G25KT 25/19 A2984 RMK A01 T02490186  RH  068%=      5-min Rain = 0
KAI1 240123Z 15021KT 25/19 A2984 RMK A01 T02490186  RH  068%=      5-min Rain = 0
KAI1 240124Z 15020KT 25/19 A2984 RMK A01 T02490186  RH  068%=      5-min Rain = 0
KAI1 240125Z 16018KT 25/19 A2984 RMK A01 T02480185  RH  068%=      5-min Rain = 0
KAI1 240126Z 15021KT 25/19 A2985 RMK A01 T02490186  RH  068%=      5-min Rain = 0
KAI1 240127Z 16020G25KT 25/19 A2985 RMK A01 T02490186  RH  068%=      5-min Rain = 0
KAI1 240128Z 15024KT 25/19 A2984 RMK A01 T02480185  RH  068%=      5-min Rain = 0
KAI1 240129Z 15023KT 25/19 A2984 RMK A01 T02480185  RH  068%=      5-min Rain = 0
KAI1 240130Z 15025KT 25/19 A2984 RMK A01 T02480185  RH  068%=      5-min Rain = 0
KAI1 240131Z 15023KT 25/18 A2985 RMK A01 T02480184  RH  067%=      5-min Rain = 0
KAI1 240132Z 15023KT 25/18 A2984 RMK A01 T02490184  RH  067%=      5-min Rain = 0
KAI1 240133Z 15022KT 25/18 A2984 RMK A01 T02490184  RH  067%=      5-min Rain = 0
KAI1 240134Z 15021KT 25/18 A2984 RMK A01 T02490184  RH  067%=      5-min Rain = 0
KAI1 240135Z 15020KT 25/18 A2985 RMK A01 T02480184  RH  067%=      5-min Rain = 0
KAI1 240136Z 16022KT 25/18 A2985 RMK A01 T02480184  RH  068%=      5-min Rain = 0
KAI1 240137Z 16022G27KT 25/18 A2985 RMK A01 T02480184  RH  068%=      5-min Rain = 0
KAI1 240138Z 16022KT 25/18 A2985 RMK A01 T02470183  RH  068%=      5-min Rain = 0
KAI1 240139Z 15019KT 25/18 A2985 RMK A01 T02470184  RH  068%=      5-min Rain = 0
KAI1 240140Z 15020KT 25/18 A2985 RMK A01 T02470183  RH  068%=      5-min Rain = 0
KAI1 240141Z 15022KT 25/18 A2985 RMK A01 T02460183  RH  068%=      5-min Rain = 0
KAI1 240142Z 16023KT 25/18 A2985 RMK A01 T02470183  RH  068%=      5-min Rain = 0
KAI1 240143Z 16025KT 25/18 A2986 RMK A01 T02460183  RH  068%=      5-min Rain = 0
KAI1 240144Z 16025G31KT 25/18 A2986 RMK A01 T02460183  RH  068%=      5-min Rain = 0
KAI1 240145Z 16024G29KT 25/18 A2986 RMK A01 T02460184  RH  068%=      5-min Rain = 0
KAI1 240146Z 16026KT 25/18 A2986 RMK A01 T02450184  RH  069%=      5-min Rain = 0
KAI1 240147Z 16028KT 25/18 A2986 RMK A01 T02450184  RH  069%=      5-min Rain = 0
KAI1 240148Z 16025G31KT 25/19 A2986 RMK A01 T02450185  RH  069%=      5-min Rain = 0
KAI1 240149Z 16026G31KT 24/19 A2986 RMK A01 T02440186  RH  070%=      5-min Rain = 0
KAI1 240150Z 16027G33KT 24/19 A2985 RMK A01 T02420187  RH  071%=      5-min Rain = 0
KAI1 240151Z 16029KT 24/19 A2985 RMK A01 T02410188  RH  072%=      5-min Rain = 0
KAI1 240152Z 16028KT 24/19 A2985 RMK A01 T02390188  RH  073%=      5-min Rain = 0
KAI1 240153Z 16027KT 24/19 A2985 RMK A01 T02380189  RH  074%=      5-min Rain = 0
KAI1 240154Z 15029G35KT 24/19 A2985 RMK A01 T02370190  RH  075%=      5-min Rain = 0
KAI1 240155Z 15032KT 24/19 A2985 RMK A01 T02350191  RH  077%=      5-min Rain = 0
KAI1 240156Z 15031KT 23/19 A2985 RMK A01 T02330192  RH  078%=      5-min Rain = 0
KAI1 240157Z 15033G38KT 23/19 A2984 RMK A01 T02310192  RH  079%=      5-min Rain = 0
KAI1 240158Z 15035G40KT 23/19 A2984 RMK A01 T02300193  RH  080%=      5-min Rain = 0
KAI1 240159Z 15031KT 23/19 A2984 RMK A01 T02280192  RH  080%=      5-min Rain = 0
KAI1 240200Z 15032G37KT 23/19 A2984 RMK A01 T02260191  RH  080%=      5-min Rain = 0
KAI1 240201Z 16037G43KT 22/19 A2984 RMK A01 T02240186  RH  079%=      5-min Rain = 0
KAI1 240202Z 16037G42KT 22/18 A2984 RMK A01 T02220184  RH  079%=      5-min Rain = 0
KAI1 240203Z 16034KT 22/18 A2984 RMK A01 T02180182  RH  080%=      5-min Rain = 0
KAI1 240204Z 16033KT 21/18 A2985 RMK A01 T02140180  RH  081%=      5-min Rain = 0
KAI1 240205Z 16034KT 21/18 A2984 RMK A01 T02120177  RH  080%=      5-min Rain = 0
KAI1 240206Z 16036G42KT 21/17 A2984 RMK A01 T02110169  RH  077%=      5-min Rain = 0
KAI1 240207Z 15031G38KT 21/16 A2984 RMK A01 T02090164  RH  076%=      5-min Rain = 0
KAI1 240208Z 16030KT 21/17 A2984 RMK A01 T02070169  RH  079%=      5-min Rain = 0
KAI1 240209Z 16029KT 20/17 A2984 RMK A01 T02030170  RH  081%=      5-min Rain = 0
KAI1 240210Z 16029G34KT 20/17 A2985 RMK A01 T02020169  RH  082%=      5-min Rain = 0
KAI1 240211Z 15028KT 20/17 A2986 RMK A01 T02010169  RH  082%=      5-min Rain = 0
KAI1 240212Z 15026G31KT 20/17 A2986 RMK A01 T02010172  RH  083%=      5-min Rain = 0
KAI1 240213Z 15026KT 20/17 A2986 RMK A01 T02000173  RH  084%=      5-min Rain = 0
KAI1 240214Z 15027G36KT 20/17 A2986 RMK A01 T02000173  RH  084%=      5-min Rain = 0
KAI1 240215Z 16027KT 20/17 A2986 RMK A01 T02000173  RH  084%=      5-min Rain = 0
KAI1 240216Z 15027KT 20/17 A2987 RMK A01 T02000170  RH  083%=      5-min Rain = 0
KAI1 240217Z 15032G37KT 20/17 A2987 RMK A01 T02000165  RH  080%=      5-min Rain = 0
KAI1 240218Z 15033G38KT 20/16 A2987 RMK A01 T02010164  RH  079%=      5-min Rain = 0
KAI1 240219Z 15030KT 20/17 A2987 RMK A01 T02010165  RH  080%=      5-min Rain = 0
KAI1 240220Z 16029KT 20/16 A2988 RMK A01 T02010163  RH  079%=      5-min Rain = 0
KAI1 240221Z 16027KT 20/16 A2988 RMK A01 T02010160  RH  077%=      5-min Rain = 0
KAI1 240222Z 16024KT 20/16 A2988 RMK A01 T02010160  RH  077%=      5-min Rain = 0
KAI1 240223Z 16024KT 20/16 A2988 RMK A01 T02020160  RH  077%=      5-min Rain = 0
KAI1 240224Z 16024KT 20/16 A2988 RMK A01 T02030161  RH  077%=      5-min Rain = 0
KAI1 240225Z 15024KT 20/16 A2988 RMK A01 T02040162  RH  077%=      5-min Rain = 0
KAI1 240226Z 15023G28KT 21/16 A2988 RMK A01 T02050162  RH  076%=      5-min Rain = 0
KAI1 240227Z 15024G29KT 21/16 A2989 RMK A01 T02060164  RH  077%=      5-min Rain = 0
KAI1 240228Z 16025KT 21/17 A2989 RMK A01 T02060165  RH  078%=      5-min Rain = 0
KAI1 240229Z 17022KT 21/17 A2989 RMK A01 T02050166  RH  078%=      5-min Rain = 0
KAI1 240230Z 17021KT 20/17 A2989 RMK A01 T02030166  RH  079%=      5-min Rain = 0
KAI1 240231Z 17020KT 20/17 A299 RMK A01 T02030166  RH  079%=      5-min Rain = 0
KAI1 240232Z 17020KT 20/17 A299 RMK A01 T02020166  RH  080%=      5-min Rain = 0
KAI1 240233Z 17021KT 20/17 A2991 RMK A01 T02020165  RH  079%=      5-min Rain = 0
KAI1 240234Z 17021KT 20/16 A2991 RMK A01 T02030160  RH  076%=      5-min Rain = 0
KAI1 240235Z 18023KT 21/16 A2991 RMK A01 T02050157  RH  074%=      5-min Rain = 0
KAI1 240236Z 17020KT 21/16 A2992 RMK A01 T02070156  RH  072%=      5-min Rain = 0
KAI1 240237Z 18021KT 21/16 A2992 RMK A01 T02080157  RH  073%=      5-min Rain = 0
KAI1 240238Z 19020KT 21/16 A2992 RMK A01 T02080159  RH  074%=      5-min Rain = 0
KAI1 240239Z 19020KT 20/16 A2993 RMK A01 T02040159  RH  075%=      5-min Rain = 0
KAI1 240240Z 19022KT 20/16 A2993 RMK A01 T02000159  RH  077%=      5-min Rain = 0
KAI1 240241Z 19028KT 20/16 A2993 RMK A01 T01970159  RH  079%=      5-min Rain = 0
KAI1 240242Z 19026G31KT 19/15 A2993 RMK A01 T01910153  RH  078%=      5-min Rain = 0.01
KAI1 240243Z 18025KT 19/15 A2992 RMK A01 T01860153  RH  081%=      5-min Rain = 0
KAI1 240244Z 17024KT 18/16 A2992 RMK A01 T01840155  RH  083%=      5-min Rain = 0
KAI1 240245Z 18023KT 18/16 A2991 RMK A01 T01830155  RH  084%=      5-min Rain = 0
KAI1 240246Z 19026G31KT 18/15 A2991 RMK A01 T01820153  RH  083%=      5-min Rain = 0.01
KAI1 240247Z 19025G31KT 18/15 A2991 RMK A01 T01800145  RH  080%=      5-min Rain = 0
KAI1 240248Z 18021KT 18/14 A2991 RMK A01 T01770138  RH  078%=      5-min Rain = 0
KAI1 240249Z 18020KT 18/14 A2991 RMK A01 T01750137  RH  078%=      5-min Rain = 0
KAI1 240250Z 17020KT 17/14 A2992 RMK A01 T01740136  RH  078%=      5-min Rain = 0
KAI1 240251Z 17020KT 17/13 A2992 RMK A01 T01740134  RH  077%=      5-min Rain = 0
KAI1 240252Z 16020KT 17/13 A2992 RMK A01 T01740134  RH  077%=      5-min Rain = 0
KAI1 240253Z 16020KT 17/13 A2991 RMK A01 T01740132  RH  077%=      5-min Rain = 0
KAI1 240254Z 16020KT 17/13 A2991 RMK A01 T01740133  RH  077%=      5-min Rain = 0
KAI1 240255Z 16021KT 17/13 A2991 RMK A01 T01740134  RH  077%=      5-min Rain = 0
KAI1 240256Z 16021G26KT 17/13 A2991 RMK A01 T01730133  RH  077%=      5-min Rain = 0
KAI1 240257Z 16020KT 17/14 A2991 RMK A01 T01740136  RH  078%=      5-min Rain = 0
KAI1 240258Z 16019KT 17/14 A2991 RMK A01 T01730135  RH  078%=      5-min Rain = 0
KAI1 240259Z 16018KT 17/14 A2991 RMK A01 T01730135  RH  078%=      5-min Rain = 0
KAI1 240300Z 16017KT 18/13 A2991 RMK A01 T01750134  RH  077%=      5-min Rain = 0
KAI1 240301Z 16019KT 18/13 A2992 RMK A01 T01770133  RH  075%=      5-min Rain = 0
KAI1 240302Z 16020KT 18/13 A2992 RMK A01 T01800131  RH  073%=      5-min Rain = 0
KAI1 240303Z 16021KT 18/14 A2992 RMK A01 T01820135  RH  074%=      5-min Rain = 0
KAI1 240304Z 17017KT 18/14 A2992 RMK A01 T01820139  RH  076%=      5-min Rain = 0
KAI1 240305Z 16018KT 18/14 A2992 RMK A01 T01800143  RH  079%=      5-min Rain = 0
KAI1 240306Z 16019KT 18/14 A2992 RMK A01 T01780141  RH  079%=      5-min Rain = 0
KAI1 240307Z 15017KT 18/14 A2991 RMK A01 T01780141  RH  079%=      5-min Rain = 0
KAI1 240308Z 15015KT 18/14 A2991 RMK A01 T01780141  RH  079%=      5-min Rain = 0
KAI1 240309Z 15016KT 18/14 A2991 RMK A01 T01780143  RH  080%=      5-min Rain = 0
KAI1 240310Z 15015KT 18/14 A2991 RMK A01 T01770141  RH  080%=      5-min Rain = 0
KAI1 240311Z 15016KT 18/14 A2991 RMK A01 T01770141  RH  079%=      5-min Rain = 0.01
KAI1 240312Z 16016KT 18/14 A2992 RMK A01 T01770140  RH  079%=      5-min Rain = 0
KAI1 240313Z 15018KT 18/14 A2992 RMK A01 T01770138  RH  078%=      5-min Rain = 0
KAI1 240314Z 15018KT 18/13 A2992 RMK A01 T01770134  RH  076%=      5-min Rain = 0
KAI1 240315Z 15018KT 18/13 A2992 RMK A01 T01790131  RH  073%=      5-min Rain = 0
KAI1 240316Z 15016KT 18/13 A2992 RMK A01 T01790131  RH  073%=      5-min Rain = 0
KAI1 240317Z 16016KT 18/13 A2992 RMK A01 T01800133  RH  074%=      5-min Rain = 0
KAI1 240318Z 16013KT 18/14 A2992 RMK A01 T01790136  RH  076%=      5-min Rain = 0
KAI1 240319Z 16014KT 18/14 A2993 RMK A01 T01780135  RH  076%=      5-min Rain = 0
KAI1 240320Z 16015KT 18/13 A2993 RMK A01 T01770132  RH  075%=      5-min Rain = 0
KAI1 240321Z 16015KT 18/13 A2993 RMK A01 T01760133  RH  076%=      5-min Rain = 0
KAI1 240322Z 16016KT 18/13 A2993 RMK A01 T01750134  RH  077%=      5-min Rain = 0
KAI1 240323Z 16016KT 18/13 A2993 RMK A01 T01750132  RH  076%=      5-min Rain = 0
KAI1 240324Z 16017KT 18/13 A2993 RMK A01 T01750132  RH  076%=      5-min Rain = 0
KAI1 240325Z 16017KT 18/13 A2993 RMK A01 T01750133  RH  076%=      5-min Rain = 0
KAI1 240326Z 16017KT 18/14 A2993 RMK A01 T01750135  RH  077%=      5-min Rain = 0
KAI1 240327Z 16017KT 18/13 A2993 RMK A01 T01750133  RH  076%=      5-min Rain = 0
KAI1 240328Z 15018KT 18/13 A2993 RMK A01 T01760132  RH  075%=      5-min Rain = 0
KAI1 240329Z 15018KT 18/13 A2993 RMK A01 T01780131  RH  074%=      5-min Rain = 0
KAI1 240330Z 15016KT 18/13 A2993 RMK A01 T01790132  RH  074%=      5-min Rain = 0
KAI1 240331Z 16015KT 18/13 A2994 RMK A01 T01800133  RH  074%=      5-min Rain = 0
KAI1 240332Z 16015KT 18/14 A2994 RMK A01 T01810135  RH  074%=      5-min Rain = 0
KAI1 240333Z 16015KT 18/14 A2994 RMK A01 T01810136  RH  075%=      5-min Rain = 0
KAI1 240334Z 16016KT 18/14 A2994 RMK A01 T01810136  RH  075%=      5-min Rain = 0
KAI1 240335Z 17015KT 18/14 A2994 RMK A01 T01810137  RH  075%=      5-min Rain = 0
KAI1 240336Z 18015KT 18/14 A2994 RMK A01 T01810138  RH  076%=      5-min Rain = 0
KAI1 240337Z 18014KT 18/14 A2994 RMK A01 T01800139  RH  077%=      5-min Rain = 0
KAI1 240338Z 18014KT 18/14 A2995 RMK A01 T01790142  RH  079%=      5-min Rain = 0
KAI1 240339Z 17014KT 18/14 A2995 RMK A01 T01780140  RH  079%=      5-min Rain = 0
KAI1 240340Z 17015KT 18/14 A2995 RMK A01 T01780141  RH  079%=      5-min Rain = 0
KAI1 240341Z 17016KT 18/14 A2995 RMK A01 T01780141  RH  079%=      5-min Rain = 0
KAI1 240342Z 17017KT 18/14 A2994 RMK A01 T01780141  RH  079%=      5-min Rain = 0
KAI1 240343Z 18017KT 18/14 A2994 RMK A01 T01790140  RH  078%=      5-min Rain = 0
KAI1 240344Z 18016KT 18/14 A2995 RMK A01 T01820141  RH  077%=      5-min Rain = 0
KAI1 240345Z 19015KT 19/14 A2995 RMK A01 T01850140  RH  075%=      5-min Rain = 0
KAI1 240346Z 20015KT 19/14 A2995 RMK A01 T01870141  RH  075%=      5-min Rain = 0
KAI1 240347Z 21016KT 19/14 A2995 RMK A01 T01870142  RH  075%=      5-min Rain = 0.01
KAI1 240348Z 21019KT 19/14 A2995 RMK A01 T01860143  RH  076%=      5-min Rain = 0
KAI1 240349Z 21017KT 18/14 A2995 RMK A01 T01840144  RH  077%=      5-min Rain = 0
KAI1 240350Z 22015KT 18/15 A2995 RMK A01 T01840145  RH  078%=      5-min Rain = 0
KAI1 240351Z 22017KT 18/15 A2995 RMK A01 T01830145  RH  079%=      5-min Rain = 0.01
KAI1 240352Z 23015KT 18/15 A2995 RMK A01 T01810146  RH  080%=      5-min Rain = 0.02
KAI1 240353Z 23014KT 18/14 A2996 RMK A01 T01790144  RH  080%=      5-min Rain = 0.01
KAI1 240354Z 23013KT 18/14 A2996 RMK A01 T01770143  RH  080%=      5-min Rain = 0.01
KAI1 240355Z 23013KT 18/14 A2997 RMK A01 T01760143  RH  081%=      5-min Rain = 0
KAI1 240356Z 21016KT 18/14 A2997 RMK A01 T01750144  RH  082%=      5-min Rain = 0.01
KAI1 240357Z 22017KT 17/14 A2997 RMK A01 T01740144  RH  082%=      5-min Rain = 0.01
KAI1 240358Z 23013KT 18/14 A2997 RMK A01 T01750140  RH  080%=      5-min Rain = 0.01
KAI1 240359Z 23014KT 18/14 A2997 RMK A01 T01770142  RH  080%=      5-min Rain = 0.02
KAI1 240400Z 22031G38KT 18/14 A2996 RMK A01 T01760138  RH  078%=      5-min Rain = 0.05
KAI1 240401Z 22031G40KT 17/14 A2996 RMK A01 T01700135  RH  080%=      5-min Rain = 0.1
KAI1 240402Z 20015KT 16/14 A2997 RMK A01 T01600136  RH  086%=      5-min Rain = 0.06
KAI1 240403Z 09011KT 16/14 A2996 RMK A01 T01560138  RH  089%=      5-min Rain = 0.01
KAI1 240404Z 05010KT 16/14 A2995 RMK A01 T01630137  RH  084%=      5-min Rain = 0.01
KAI1 240405Z 11018G24KT 17/14 A2995 RMK A01 T01700136  RH  080%=      5-min Rain = 0.02
KAI1 240406Z 15016KT 17/14 A2995 RMK A01 T01700140  RH  083%=      5-min Rain = 0.02
KAI1 240407Z 15014KT 17/14 A2995 RMK A01 T01660142  RH  085%=      5-min Rain = 0
KAI1 240408Z 12017KT 17/14 A2994 RMK A01 T01660142  RH  085%=      5-min Rain = 0.01
KAI1 240409Z 12018KT 17/14 A2994 RMK A01 T01650141  RH  086%=      5-min Rain = 0
KAI1 240410Z 12019KT 17/14 A2994 RMK A01 T01650143  RH  087%=      5-min Rain = 0
KAI1 240411Z 12015KT 17/14 A2994 RMK A01 T01710144  RH  085%=      5-min Rain = 0.01
KAI1 240412Z 12018KT 17/15 A2993 RMK A01 T01720149  RH  086%=      5-min Rain = 0
KAI1 240413Z 13018KT 17/15 A2993 RMK A01 T01720151  RH  087%=      5-min Rain = 0
KAI1 240414Z 14017KT 17/15 A2993 RMK A01 T01720153  RH  089%=      5-min Rain = 0.01
KAI1 240415Z 15016KT 17/16 A2992 RMK A01 T01730155  RH  089%=      5-min Rain = 0
KAI1 240416Z 13016KT 17/15 A2992 RMK A01 T01710154  RH  089%=      5-min Rain = 0.01
KAI1 240417Z 12015KT 17/16 A2992 RMK A01 T01710156  RH  091%=      5-min Rain = 0
KAI1 240418Z 12016KT 17/16 A2992 RMK A01 T01730158  RH  091%=      5-min Rain = 0.01
KAI1 240419Z 12016KT 17/16 A2991 RMK A01 T01730159  RH  092%=      5-min Rain = 0.01
KAI1 240420Z 11018KT 17/16 A2991 RMK A01 T01720160  RH  093%=      5-min Rain = 0.01
KAI1 240421Z 12018KT 17/16 A2992 RMK A01 T01730162  RH  093%=      5-min Rain = 0.01
KAI1 240422Z 14021KT 17/16 A2992 RMK A01 T01730163  RH  094%=      5-min Rain = 0.01
KAI1 240423Z 14025KT 17/16 A2993 RMK A01 T01710159  RH  093%=      5-min Rain = 0
KAI1 240424Z 14022KT 17/15 A2993 RMK A01 T01680153  RH  091%=      5-min Rain = 0
KAI1 240425Z 13019KT 17/15 A2994 RMK A01 T01650153  RH  092%=      5-min Rain = 0
KAI1 240426Z 14016KT 16/15 A2994 RMK A01 T01640154  RH  094%=      5-min Rain = 0.01
KAI1 240427Z 12016KT 16/16 A2994 RMK A01 T01630155  RH  094%=      5-min Rain = 0
KAI1 240428Z 11018KT 17/16 A2994 RMK A01 T01650156  RH  095%=      5-min Rain = 0
KAI1 240429Z 11016KT 17/16 A2993 RMK A01 T01680157  RH  093%=      5-min Rain = 0
KAI1 240430Z 11015KT 17/16 A2993 RMK A01 T01700157  RH  092%=      5-min Rain = 0
KAI1 240431Z 10012KT 17/16 A2993 RMK A01 T01690156  RH  092%=      5-min Rain = 0
KAI1 240432Z 11010KT 17/16 A2993 RMK A01 T01700156  RH  091%=      5-min Rain = 0
KAI1 240433Z 11007KT 17/16 A2994 RMK A01 T01710157  RH  091%=      5-min Rain = 0
KAI1 240434Z 10008KT 17/16 A2994 RMK A01 T01710157  RH  091%=      5-min Rain = 0
KAI1 240435Z 09008KT 17/16 A2994 RMK A01 T01710157  RH  091%=      5-min Rain = 0
KAI1 240436Z 10009KT 17/16 A2995 RMK A01 T01720157  RH  091%=      5-min Rain = 0
KAI1 240437Z 11006KT 17/16 A2995 RMK A01 T01740156  RH  089%=      5-min Rain = 0
KAI1 240438Z 12005KT 18/16 A2995 RMK A01 T01760157  RH  089%=      5-min Rain = 0
KAI1 240439Z 12004KT 18/16 A2995 RMK A01 T01770158  RH  089%=      5-min Rain = 0
KAI1 240440Z 09003KT 18/16 A2994 RMK A01 T01770157  RH  088%=      5-min Rain = 0
KAI1 240441Z 06005KT 18/16 A2994 RMK A01 T01770157  RH  088%=      5-min Rain = 0
KAI1 240442Z 06006KT 18/16 A2993 RMK A01 T01780159  RH  088%=      5-min Rain = 0
KAI1 240443Z 07009KT 18/16 A2992 RMK A01 T01780158  RH  088%=      5-min Rain = 0
KAI1 240444Z 07012KT 18/16 A2992 RMK A01 T01800159  RH  087%=      5-min Rain = 0
KAI1 240445Z 08013KT 19/16 A2991 RMK A01 T01850157  RH  083%=      5-min Rain = 0
KAI1 240446Z 06012KT 19/16 A2991 RMK A01 T01890158  RH  082%=      5-min Rain = 0
KAI1 240447Z 06013KT 19/16 A2991 RMK A01 T01890158  RH  082%=      5-min Rain = 0
KAI1 240448Z 05012KT 19/16 A2991 RMK A01 T01870159  RH  083%=      5-min Rain = 0
KAI1 240449Z 06013KT 19/16 A2991 RMK A01 T01860160  RH  085%=      5-min Rain = 0
KAI1 240450Z 06014KT 18/16 A2991 RMK A01 T01840161  RH  086%=      5-min Rain = 0
KAI1 240451Z 04018KT 18/16 A299 RMK A01 T01830160  RH  086%=      5-min Rain = 0
KAI1 240452Z 03017KT 18/16 A2989 RMK A01 T01810159  RH  087%=      5-min Rain = 0
KAI1 240453Z 03017KT 18/16 A2988 RMK A01 T01800160  RH  088%=      5-min Rain = 0
KAI1 240454Z 06012KT 18/16 A2989 RMK A01 T01790161  RH  089%=      5-min Rain = 0
KAI1 240455Z 09007KT 18/16 A2992 RMK A01 T01780162  RH  090%=      5-min Rain = 0
KAI1 240456Z 19012KT 18/16 A2993 RMK A01 T01770162  RH  091%=      5-min Rain = 0
KAI1 240457Z 19012KT 18/16 A2994 RMK A01 T01760157  RH  089%=      5-min Rain = 0
KAI1 240458Z 20007G12KT 18/15 A2994 RMK A01 T01760153  RH  087%=      5-min Rain = 0
KAI1 240459Z 24005KT 18/15 A2994 RMK A01 T01750151  RH  086%=      5-min Rain = 0

Page generated in 0.0718 seconds.